Time,TemperatureF,DewpointF,PressureIn,WindDirection,WindDirectionDegrees,WindSpeedMPH,WindSpeedGustMPH,Humidity,HourlyPrecipIn,Conditions,Clouds,dailyrainin,SolarRadiationWatts/m^2,SoftwareType,DateUTC
2012-11-16 00:00:00,60.0,58.0,30.15,ENE,68,2.0,8.0,93,0.00,,---,0.00,0.00,VWS V14.01,2012-11-16 05:00:00,
2012-11-16 01:00:00,60.1,58.4,30.14,ENE,68,1.0,7.0,94,0.00,,---,0.00,0.00,VWS V14.01,2012-11-16 06:00:00,
2012-11-16 02:00:00,59.9,58.2,30.14,ENE,68,0.0,3.0,94,0.00,,---,0.00,0.00,VWS V14.01,2012-11-16 07:00:00,
2012-11-16 03:00:00,59.4,57.7,30.15,NE,45,0.0,5.0,94,0.00,,---,0.00,0.00,VWS V14.01,2012-11-16 08:00:00,
2012-11-16 04:00:00,58.7,56.7,30.14,NNW,338,0.0,4.0,93,0.00,,---,0.00,0.00,VWS V14.01,2012-11-16 09:00:00,
2012-11-16 05:00:00,58.8,57.4,30.14,NE,45,0.0,4.0,95,0.00,,---,0.00,0.00,VWS V14.01,2012-11-16 10:00:00,
2012-11-16 06:00:00,58.4,57.0,30.15,ENE,68,0.0,3.0,95,0.00,,---,0.00,0.00,VWS V14.01,2012-11-16 11:00:00,
2012-11-16 07:13:00,57.9,56.5,30.16,East,85,4.0,5.0,95,0.00,,---,0.00,12.00,VWS V14.01,2012-11-16 12:13:00,
2012-11-16 07:14:00,57.9,56.5,30.15,East,100,1.0,5.0,95,0.00,,---,0.00,12.00,VWS V14.01,2012-11-16 12:14:00,
2012-11-16 07:15:00,57.8,56.4,30.15,East,100,0.0,5.0,95,0.00,,---,0.00,12.00,VWS V14.01,2012-11-16 12:15:00,
2012-11-16 07:16:00,57.8,56.4,30.15,NE,45,1.0,5.0,95,0.00,,---,0.00,12.00,VWS V14.01,2012-11-16 12:16:00,
2012-11-16 07:17:00,57.9,56.5,30.15,ENE,74,2.0,5.0,95,0.00,,---,0.00,12.00,VWS V14.01,2012-11-16 12:17:00,
2012-11-16 07:18:00,57.9,56.5,30.15,NE,44,4.0,5.0,95,0.00,,---,0.00,12.00,VWS V14.01,2012-11-16 12:18:00,
2012-11-16 07:19:00,57.9,56.5,30.15,East,79,3.0,5.0,95,0.00,,---,0.00,16.00,VWS V14.01,2012-11-16 12:19:00,
2012-11-16 07:20:00,57.9,56.5,30.16,East,79,0.0,5.0,95,0.00,,---,0.00,16.00,VWS V14.01,2012-11-16 12:20:00,
2012-11-16 07:21:00,57.9,56.5,30.16,ENE,64,3.0,5.0,95,0.00,,---,0.00,16.00,VWS V14.01,2012-11-16 12:21:00,
2012-11-16 07:22:00,57.9,56.5,30.15,NE,46,5.0,5.0,95,0.00,,---,0.00,12.00,VWS V14.01,2012-11-16 12:22:00,
2012-11-16 07:23:00,58.0,56.6,30.15,ENE,62,1.0,5.0,95,0.00,,---,0.00,18.00,VWS V14.01,2012-11-16 12:23:00,
2012-11-16 07:24:00,58.0,56.3,30.15,ESE,102,1.0,5.0,94,0.00,,---,0.00,18.00,VWS V14.01,2012-11-16 12:24:00,
2012-11-16 07:25:00,58.0,56.3,30.15,ENE,63,1.0,5.0,94,0.00,,---,0.00,19.00,VWS V14.01,2012-11-16 12:25:00,
2012-11-16 07:26:00,58.0,56.3,30.15,ESE,110,3.0,5.0,94,0.00,,---,0.00,21.00,VWS V14.01,2012-11-16 12:26:00,
2012-11-16 07:27:00,57.9,56.5,30.15,ENE,75,4.0,5.0,95,0.00,,---,0.00,12.00,VWS V14.01,2012-11-16 12:27:00,
2012-11-16 07:28:00,57.9,56.2,30.15,NE,56,0.0,5.0,94,0.00,,---,0.00,19.00,VWS V14.01,2012-11-16 12:28:00,
2012-11-16 07:29:00,58.0,56.3,30.15,ENE,72,3.0,5.0,94,0.00,,---,0.00,19.00,VWS V14.01,2012-11-16 12:29:00,
2012-11-16 07:30:00,58.0,56.3,30.16,ENE,73,5.0,5.0,94,0.00,,---,0.00,25.00,VWS V14.01,2012-11-16 12:30:00,
2012-11-16 07:31:00,58.0,56.3,30.16,NNE,32,0.0,5.0,94,0.00,,---,0.00,25.00,VWS V14.01,2012-11-16 12:31:00,
2012-11-16 07:32:00,58.0,56.6,30.15,East,83,0.0,5.0,95,0.00,,---,0.00,18.00,VWS V14.01,2012-11-16 12:32:00,
2012-11-16 07:33:00,58.1,56.4,30.16,ENE,68,0.0,5.0,94,0.00,,---,0.00,23.00,VWS V14.01,2012-11-16 12:33:00,
2012-11-16 07:34:00,58.1,56.4,30.16,ENE,73,2.0,5.0,94,0.00,,---,0.00,23.00,VWS V14.01,2012-11-16 12:34:00,
2012-11-16 07:35:00,58.1,56.4,30.16,ENE,68,1.0,5.0,94,0.00,,---,0.00,23.00,VWS V14.01,2012-11-16 12:35:00,
2012-11-16 07:36:00,58.1,56.4,30.16,ENE,68,0.0,5.0,94,0.00,,---,0.00,25.00,VWS V14.01,2012-11-16 12:36:00,
2012-11-16 07:37:00,57.9,56.2,30.15,NE,56,0.0,5.0,94,0.00,,---,0.00,19.00,VWS V14.01,2012-11-16 12:37:00,
2012-11-16 07:38:00,58.2,56.5,30.16,NNE,21,3.0,6.0,94,0.00,,---,0.00,25.00,VWS V14.01,2012-11-16 12:38:00,
2012-11-16 07:39:00,58.1,56.4,30.16,NNE,32,1.0,6.0,94,0.00,,---,0.00,21.00,VWS V14.01,2012-11-16 12:39:00,
2012-11-16 07:40:00,58.1,56.4,30.16,ENE,68,4.0,7.0,94,0.00,,---,0.00,21.00,VWS V14.01,2012-11-16 12:40:00,
2012-11-16 07:41:00,58.1,56.4,30.16,NE,50,3.0,7.0,94,0.00,,---,0.00,21.00,VWS V14.01,2012-11-16 12:41:00,
2012-11-16 07:42:00,58.1,56.4,30.16,NE,39,0.0,7.0,94,0.00,,---,0.00,21.00,VWS V14.01,2012-11-16 12:42:00,
2012-11-16 07:43:00,58.1,56.4,30.16,East,100,3.0,5.0,94,0.00,,---,0.00,23.00,VWS V14.01,2012-11-16 12:43:00,
2012-11-16 07:44:00,58.0,56.3,30.16,East,79,3.0,7.0,94,0.00,,---,0.00,21.00,VWS V14.01,2012-11-16 12:44:00,
2012-11-16 07:45:00,58.0,56.3,30.16,East,82,3.0,7.0,94,0.00,,---,0.00,21.00,VWS V14.01,2012-11-16 12:45:00,
2012-11-16 07:46:00,58.1,56.4,30.16,ENE,70,1.0,7.0,94,0.00,,---,0.00,19.00,VWS V14.01,2012-11-16 12:46:00,
2012-11-16 07:47:00,58.1,56.4,30.16,NE,48,4.0,7.0,94,0.00,,---,0.00,19.00,VWS V14.01,2012-11-16 12:47:00,
2012-11-16 07:48:00,58.1,56.4,30.16,NNE,32,1.0,6.0,94,0.00,,---,0.00,21.00,VWS V14.01,2012-11-16 12:48:00,
2012-11-16 07:49:00,58.1,56.4,30.16,East,95,0.0,7.0,94,0.00,,---,0.00,21.00,VWS V14.01,2012-11-16 12:49:00,
2012-11-16 07:50:00,58.1,56.4,30.16,ENE,62,2.0,7.0,94,0.00,,---,0.00,21.00,VWS V14.01,2012-11-16 12:50:00,
2012-11-16 07:51:00,58.1,56.4,30.16,NNE,31,5.0,7.0,94,0.00,,---,0.00,21.00,VWS V14.01,2012-11-16 12:51:00,
2012-11-16 07:52:00,58.1,56.4,30.16,ENE,64,0.0,7.0,94,0.00,,---,0.00,21.00,VWS V14.01,2012-11-16 12:52:00,
2012-11-16 07:53:00,58.0,56.3,30.16,East,79,3.0,7.0,94,0.00,,---,0.00,21.00,VWS V14.01,2012-11-16 12:53:00,
2012-11-16 07:54:00,58.1,56.4,30.16,ESE,103,1.0,7.0,94,0.00,,---,0.00,25.00,VWS V14.01,2012-11-16 12:54:00,
2012-11-16 07:55:00,58.1,56.4,30.16,ESE,103,0.0,7.0,94,0.00,,---,0.00,26.00,VWS V14.01,2012-11-16 12:55:00,
2012-11-16 07:56:00,58.1,56.4,30.16,East,86,3.0,7.0,94,0.00,,---,0.00,26.00,VWS V14.01,2012-11-16 12:56:00,
2012-11-16 07:57:00,58.1,56.4,30.16,NNE,27,1.0,7.0,94,0.00,,---,0.00,26.00,VWS V14.01,2012-11-16 12:57:00,
2012-11-16 07:58:00,58.1,56.4,30.16,East,83,0.0,7.0,94,0.00,,---,0.00,26.00,VWS V14.01,2012-11-16 12:58:00,
2012-11-16 07:59:00,58.1,56.4,30.16,ENE,63,0.0,7.0,94,0.00,,---,0.00,21.00,VWS V14.01,2012-11-16 12:59:00,
2012-11-16 08:00:00,58.1,56.4,30.16,East,79,2.0,2.0,94,0.00,,---,0.00,30.00,VWS V14.01,2012-11-16 13:00:00,
2012-11-16 08:01:00,58.2,56.5,30.16,East,84,2.0,6.0,94,0.00,,---,0.00,30.00,VWS V14.01,2012-11-16 13:01:00,
2012-11-16 08:02:00,58.2,56.5,30.16,East,84,0.0,6.0,94,0.00,,---,0.00,30.00,VWS V14.01,2012-11-16 13:02:00,
2012-11-16 08:03:00,58.2,56.5,30.16,NNW,347,0.0,6.0,94,0.00,,---,0.00,30.00,VWS V14.01,2012-11-16 13:03:00,
2012-11-16 08:04:00,58.1,56.4,30.16,ESE,103,0.0,7.0,94,0.00,,---,0.00,26.00,VWS V14.01,2012-11-16 13:04:00,
2012-11-16 08:05:00,58.3,56.6,30.16,NE,56,0.0,6.0,94,0.00,,---,0.00,30.00,VWS V14.01,2012-11-16 13:05:00,
2012-11-16 08:06:00,58.3,56.6,30.16,ESE,118,2.0,6.0,94,0.00,,---,0.00,30.00,VWS V14.01,2012-11-16 13:06:00,
2012-11-16 08:07:00,58.3,56.6,30.16,East,86,3.0,6.0,94,0.00,,---,0.00,30.00,VWS V14.01,2012-11-16 13:07:00,
2012-11-16 08:08:00,58.3,56.6,30.16,ENE,64,1.0,6.0,94,0.00,,---,0.00,30.00,VWS V14.01,2012-11-16 13:08:00,
2012-11-16 08:09:00,58.3,56.6,30.16,ENE,64,1.0,6.0,94,0.00,,---,0.00,30.00,VWS V14.01,2012-11-16 13:09:00,
2012-11-16 08:10:00,58.2,56.5,30.16,NE,53,3.0,6.0,94,0.00,,---,0.00,30.00,VWS V14.01,2012-11-16 13:10:00,
2012-11-16 08:11:00,58.4,56.7,30.16,ENE,64,1.0,6.0,94,0.00,,---,0.00,30.00,VWS V14.01,2012-11-16 13:11:00,
2012-11-16 08:12:00,58.5,56.8,30.16,ENE,64,0.0,6.0,94,0.00,,---,0.00,30.00,VWS V14.01,2012-11-16 13:12:00,
2012-11-16 08:13:00,58.6,56.9,30.16,ENE,61,4.0,6.0,94,0.00,,---,0.00,32.00,VWS V14.01,2012-11-16 13:13:00,
2012-11-16 08:14:00,58.6,56.9,30.16,NNE,27,0.0,6.0,94,0.00,,---,0.00,33.00,VWS V14.01,2012-11-16 13:14:00,
2012-11-16 08:15:00,58.3,56.6,30.16,ENE,69,0.0,6.0,94,0.00,,---,0.00,30.00,VWS V14.01,2012-11-16 13:15:00,
2012-11-16 08:16:00,58.5,56.8,30.16,NE,46,0.0,6.0,94,0.00,,---,0.00,35.00,VWS V14.01,2012-11-16 13:16:00,
2012-11-16 08:17:00,58.5,56.8,30.16,ENE,66,3.0,6.0,94,0.00,,---,0.00,32.00,VWS V14.01,2012-11-16 13:17:00,
2012-11-16 08:18:00,58.6,56.9,30.16,NNW,330,0.0,6.0,94,0.00,,---,0.00,30.00,VWS V14.01,2012-11-16 13:18:00,
2012-11-16 08:19:00,58.6,56.9,30.16,NNW,330,0.0,6.0,94,0.00,,---,0.00,30.00,VWS V14.01,2012-11-16 13:19:00,
2012-11-16 08:20:00,58.6,56.9,30.16,NNW,330,0.0,6.0,94,0.00,,---,0.00,30.00,VWS V14.01,2012-11-16 13:20:00,
2012-11-16 08:21:00,58.4,56.7,30.16,ENE,64,0.0,6.0,94,0.00,,---,0.00,30.00,VWS V14.01,2012-11-16 13:21:00,
2012-11-16 08:22:00,58.7,57.0,30.16,ENE,77,1.0,6.0,94,0.00,,---,0.00,32.00,VWS V14.01,2012-11-16 13:22:00,
2012-11-16 08:23:00,58.7,57.0,30.17,ENE,77,1.0,6.0,94,0.00,,---,0.00,33.00,VWS V14.01,2012-11-16 13:23:00,
2012-11-16 08:24:00,58.7,57.0,30.17,ENE,77,1.0,6.0,94,0.00,,---,0.00,30.00,VWS V14.01,2012-11-16 13:24:00,
2012-11-16 08:25:00,58.7,57.0,30.16,ENE,77,0.0,6.0,94,0.00,,---,0.00,30.00,VWS V14.01,2012-11-16 13:25:00,
2012-11-16 08:26:00,58.5,56.8,30.16,ENE,66,3.0,6.0,94,0.00,,---,0.00,32.00,VWS V14.01,2012-11-16 13:26:00,
2012-11-16 08:27:00,58.8,57.1,30.16,ENE,77,0.0,6.0,94,0.00,,---,0.00,28.00,VWS V14.01,2012-11-16 13:27:00,
2012-11-16 08:28:00,58.9,57.5,30.17,ENE,77,0.0,6.0,95,0.00,,---,0.00,28.00,VWS V14.01,2012-11-16 13:28:00,
2012-11-16 08:29:00,58.9,57.2,30.17,ENE,77,0.0,6.0,94,0.00,,---,0.00,28.00,VWS V14.01,2012-11-16 13:29:00,
2012-11-16 08:30:00,58.9,57.2,30.17,ENE,77,0.0,6.0,94,0.00,,---,0.00,28.00,VWS V14.01,2012-11-16 13:30:00,
2012-11-16 08:31:00,58.7,57.0,30.16,ENE,77,1.0,6.0,94,0.00,,---,0.00,32.00,VWS V14.01,2012-11-16 13:31:00,
2012-11-16 08:32:00,58.9,57.2,30.17,ENE,73,1.0,6.0,94,0.00,,---,0.00,32.00,VWS V14.01,2012-11-16 13:32:00,
2012-11-16 08:33:00,58.9,57.2,30.17,NE,50,1.0,6.0,94,0.00,,---,0.00,35.00,VWS V14.01,2012-11-16 13:33:00,
2012-11-16 08:34:00,58.8,57.1,30.16,NE,56,1.0,6.0,94,0.00,,---,0.00,39.00,VWS V14.01,2012-11-16 13:34:00,
2012-11-16 08:35:00,58.7,57.0,30.17,WNW,286,1.0,6.0,94,0.00,,---,0.00,40.00,VWS V14.01,2012-11-16 13:35:00,
2012-11-16 08:36:00,58.8,57.1,30.16,ENE,77,0.0,6.0,94,0.00,,---,0.00,28.00,VWS V14.01,2012-11-16 13:36:00,
2012-11-16 08:37:00,58.7,57.0,30.17,North,10,0.0,8.0,94,0.00,,---,0.00,44.00,VWS V14.01,2012-11-16 13:37:00,
2012-11-16 08:38:00,58.7,57.0,30.17,NE,46,0.0,8.0,94,0.00,,---,0.00,46.00,VWS V14.01,2012-11-16 13:38:00,
2012-11-16 08:39:00,58.6,56.9,30.17,ENE,64,3.0,8.0,94,0.00,,---,0.00,49.00,VWS V14.01,2012-11-16 13:39:00,
2012-11-16 08:40:00,58.6,56.9,30.17,East,82,1.0,8.0,94,0.00,,---,0.00,53.00,VWS V14.01,2012-11-16 13:40:00,
2012-11-16 08:41:00,58.6,56.9,30.17,East,82,1.0,8.0,94,0.00,,---,0.00,56.00,VWS V14.01,2012-11-16 13:41:00,
2012-11-16 08:42:00,58.9,57.2,30.17,NE,50,2.0,6.0,94,0.00,,---,0.00,35.00,VWS V14.01,2012-11-16 13:42:00,
2012-11-16 08:43:00,58.7,57.3,30.17,ENE,68,3.0,8.0,95,0.00,,---,0.00,77.00,VWS V14.01,2012-11-16 13:43:00,
2012-11-16 08:44:00,58.7,57.0,30.17,ENE,67,1.0,8.0,94,0.00,,---,0.00,81.00,VWS V14.01,2012-11-16 13:44:00,
2012-11-16 08:45:00,58.7,57.0,30.17,NE,48,1.0,8.0,94,0.00,,---,0.00,81.00,VWS V14.01,2012-11-16 13:45:00,
2012-11-16 08:46:00,58.7,57.3,30.17,East,89,1.0,8.0,95,0.00,,---,0.00,69.00,VWS V14.01,2012-11-16 13:46:00,
2012-11-16 08:47:00,58.7,57.0,30.17,NE,46,0.0,8.0,94,0.00,,---,0.00,46.00,VWS V14.01,2012-11-16 13:47:00,
2012-11-16 08:48:00,58.7,57.3,30.17,NW,326,0.0,8.0,95,0.00,,---,0.00,58.00,VWS V14.01,2012-11-16 13:48:00,
2012-11-16 08:49:00,58.7,57.3,30.17,East,95,1.0,8.0,95,0.00,,---,0.00,62.00,VWS V14.01,2012-11-16 13:49:00,
2012-11-16 08:50:00,58.8,57.4,30.17,NNW,331,2.0,8.0,95,0.00,,---,0.00,67.00,VWS V14.01,2012-11-16 13:50:00,
2012-11-16 08:51:00,58.8,57.4,30.17,East,93,1.0,8.0,95,0.00,,---,0.00,67.00,VWS V14.01,2012-11-16 13:51:00,
2012-11-16 08:52:00,58.8,57.4,30.17,NNE,20,0.0,8.0,95,0.00,,---,0.00,67.00,VWS V14.01,2012-11-16 13:52:00,
2012-11-16 08:53:00,58.7,57.0,30.17,ENE,67,1.0,8.0,94,0.00,,---,0.00,81.00,VWS V14.01,2012-11-16 13:53:00,
2012-11-16 08:54:00,58.7,57.3,30.17,SE,130,0.0,8.0,95,0.00,,---,0.00,76.00,VWS V14.01,2012-11-16 13:54:00,
2012-11-16 08:55:00,58.7,57.0,30.17,SE,130,0.0,8.0,94,0.00,,---,0.00,77.00,VWS V14.01,2012-11-16 13:55:00,
2012-11-16 08:56:00,58.7,57.0,30.17,NE,46,2.0,8.0,94,0.00,,---,0.00,70.00,VWS V14.01,2012-11-16 13:56:00,
2012-11-16 08:57:00,58.7,57.0,30.17,ESE,108,0.0,8.0,94,0.00,,---,0.00,69.00,VWS V14.01,2012-11-16 13:57:00,
2012-11-16 08:58:00,58.7,57.0,30.17,ESE,121,0.0,8.0,94,0.00,,---,0.00,69.00,VWS V14.01,2012-11-16 13:58:00,
2012-11-16 08:59:00,58.8,57.4,30.17,East,83,0.0,8.0,95,0.00,,---,0.00,67.00,VWS V14.01,2012-11-16 13:59:00,
2012-11-16 09:00:00,58.8,57.4,30.17,ENE,59,0.0,0.0,95,0.00,,---,0.00,67.00,VWS V14.01,2012-11-16 14:00:00,
2012-11-16 09:01:00,58.8,57.1,30.17,ESE,108,1.0,3.0,94,0.00,,---,0.00,67.00,VWS V14.01,2012-11-16 14:01:00,
2012-11-16 09:02:00,58.8,57.1,30.18,NE,40,0.0,3.0,94,0.00,,---,0.00,67.00,VWS V14.01,2012-11-16 14:02:00,
2012-11-16 09:03:00,58.8,57.4,30.17,NE,34,1.0,3.0,95,0.00,,---,0.00,65.00,VWS V14.01,2012-11-16 14:03:00,
2012-11-16 09:04:00,58.7,57.3,30.17,SE,130,0.0,8.0,95,0.00,,---,0.00,77.00,VWS V14.01,2012-11-16 14:04:00,
2012-11-16 09:05:00,58.7,57.0,30.18,ENE,61,0.0,5.0,94,0.00,,---,0.00,72.00,VWS V14.01,2012-11-16 14:05:00,
2012-11-16 09:06:00,58.6,56.9,30.18,NE,48,0.0,5.0,94,0.00,,---,0.00,70.00,VWS V14.01,2012-11-16 14:06:00,
2012-11-16 09:07:00,58.6,56.9,30.18,ENE,64,2.0,5.0,94,0.00,,---,0.00,86.00,VWS V14.01,2012-11-16 14:07:00,
2012-11-16 09:08:00,58.6,56.9,30.18,ENE,61,0.0,5.0,94,0.00,,---,0.00,86.00,VWS V14.01,2012-11-16 14:08:00,
2012-11-16 09:09:00,58.8,57.4,30.17,ENE,59,0.0,8.0,95,0.00,,---,0.00,67.00,VWS V14.01,2012-11-16 14:09:00,
2012-11-16 09:10:00,58.7,57.3,30.18,NE,38,0.0,6.0,95,0.00,,---,0.00,93.00,VWS V14.01,2012-11-16 14:10:00,
2012-11-16 09:11:00,58.7,57.0,30.18,NNE,29,1.0,6.0,94,0.00,,---,0.00,91.00,VWS V14.01,2012-11-16 14:11:00,
2012-11-16 09:12:00,58.6,56.9,30.18,East,83,2.0,6.0,94,0.00,,---,0.00,98.00,VWS V14.01,2012-11-16 14:12:00,
2012-11-16 09:13:00,58.6,56.9,30.18,NE,47,1.0,6.0,94,0.00,,---,0.00,98.00,VWS V14.01,2012-11-16 14:13:00,
2012-11-16 09:14:00,58.7,57.0,30.17,ENE,61,0.0,5.0,94,0.00,,---,0.00,72.00,VWS V14.01,2012-11-16 14:14:00,
2012-11-16 09:15:00,58.6,56.9,30.18,East,83,0.0,6.0,94,0.00,,---,0.00,109.00,VWS V14.01,2012-11-16 14:15:00,
2012-11-16 09:16:00,58.6,56.9,30.18,NNE,25,0.0,6.0,94,0.00,,---,0.00,95.00,VWS V14.01,2012-11-16 14:16:00,
2012-11-16 09:17:00,58.6,56.9,30.18,East,79,2.0,6.0,94,0.00,,---,0.00,95.00,VWS V14.01,2012-11-16 14:17:00,
2012-11-16 09:18:00,58.7,57.0,30.18,ENE,77,0.0,6.0,94,0.00,,---,0.00,79.00,VWS V14.01,2012-11-16 14:18:00,
2012-11-16 09:19:00,58.7,57.3,30.18,NE,38,0.0,6.0,95,0.00,,---,0.00,93.00,VWS V14.01,2012-11-16 14:19:00,
2012-11-16 09:20:00,58.7,57.0,30.18,ENE,71,3.0,6.0,94,0.00,,---,0.00,79.00,VWS V14.01,2012-11-16 14:20:00,
2012-11-16 09:21:00,58.9,57.2,30.18,North,8,3.0,6.0,94,0.00,,---,0.00,88.00,VWS V14.01,2012-11-16 14:21:00,
2012-11-16 09:22:00,58.8,57.1,30.18,ENE,69,0.0,6.0,94,0.00,,---,0.00,81.00,VWS V14.01,2012-11-16 14:22:00,
2012-11-16 09:23:00,58.8,57.1,30.18,NE,48,1.0,6.0,94,0.00,,---,0.00,84.00,VWS V14.01,2012-11-16 14:23:00,
2012-11-16 09:24:00,58.6,56.9,30.18,East,83,0.0,6.0,94,0.00,,---,0.00,109.00,VWS V14.01,2012-11-16 14:24:00,
2012-11-16 09:25:00,58.9,57.2,30.18,ENE,63,2.0,6.0,94,0.00,,---,0.00,84.00,VWS V14.01,2012-11-16 14:25:00,
2012-11-16 09:26:00,58.9,57.2,30.18,ENE,66,0.0,6.0,94,0.00,,---,0.00,83.00,VWS V14.01,2012-11-16 14:26:00,
2012-11-16 09:27:00,58.9,57.2,30.18,NNE,33,1.0,6.0,94,0.00,,---,0.00,86.00,VWS V14.01,2012-11-16 14:27:00,
2012-11-16 09:28:00,59.0,57.3,30.18,ENE,63,4.0,6.0,94,0.00,,---,0.00,84.00,VWS V14.01,2012-11-16 14:28:00,
2012-11-16 09:29:00,59.0,57.3,30.18,North,1,0.0,6.0,94,0.00,,---,0.00,83.00,VWS V14.01,2012-11-16 14:29:00,
2012-11-16 09:30:00,58.8,57.1,30.18,NE,40,5.0,6.0,94,0.00,,---,0.00,84.00,VWS V14.01,2012-11-16 14:30:00,
2012-11-16 09:31:00,59.0,57.3,30.18,ENE,77,1.0,6.0,94,0.00,,---,0.00,90.00,VWS V14.01,2012-11-16 14:31:00,
2012-11-16 09:32:00,59.0,57.3,30.18,ENE,64,5.0,6.0,94,0.00,,---,0.00,90.00,VWS V14.01,2012-11-16 14:32:00,
2012-11-16 09:33:00,59.0,57.3,30.18,NNE,23,2.0,6.0,94,0.00,,---,0.00,98.00,VWS V14.01,2012-11-16 14:33:00,
2012-11-16 09:34:00,58.9,57.2,30.18,NNE,12,0.0,6.0,94,0.00,,---,0.00,98.00,VWS V14.01,2012-11-16 14:34:00,
2012-11-16 09:35:00,58.9,57.2,30.18,ENE,66,0.0,6.0,94,0.00,,---,0.00,83.00,VWS V14.01,2012-11-16 14:35:00,
2012-11-16 09:36:00,59.0,57.3,30.18,NE,48,5.0,6.0,94,0.00,,---,0.00,98.00,VWS V14.01,2012-11-16 14:36:00,
2012-11-16 09:37:00,58.9,57.2,30.18,NNE,31,5.0,7.0,94,0.00,,---,0.00,125.00,VWS V14.01,2012-11-16 14:37:00,
2012-11-16 09:38:00,58.8,57.1,30.18,ENE,62,2.0,7.0,94,0.00,,---,0.00,118.00,VWS V14.01,2012-11-16 14:38:00,
2012-11-16 09:39:00,58.8,57.1,30.18,NNW,347,1.0,7.0,94,0.00,,---,0.00,158.00,VWS V14.01,2012-11-16 14:39:00,
2012-11-16 09:40:00,59.0,57.3,30.18,ENE,77,2.0,6.0,94,0.00,,---,0.00,90.00,VWS V14.01,2012-11-16 14:40:00,
2012-11-16 09:41:00,59.0,57.3,30.19,NE,52,0.0,7.0,94,0.00,,---,0.00,288.00,VWS V14.01,2012-11-16 14:41:00,
2012-11-16 09:42:00,59.2,57.8,30.19,North,11,1.0,7.0,95,0.00,,---,0.00,288.00,VWS V14.01,2012-11-16 14:42:00,
2012-11-16 09:43:00,59.4,58.0,30.19,West,279,1.0,7.0,95,0.00,,---,0.00,244.00,VWS V14.01,2012-11-16 14:43:00,
2012-11-16 09:44:00,59.6,58.2,30.19,ENE,75,0.0,7.0,95,0.00,,---,0.00,237.00,VWS V14.01,2012-11-16 14:44:00,
2012-11-16 09:45:00,59.0,57.3,30.18,East,85,4.0,6.0,94,0.00,,---,0.00,98.00,VWS V14.01,2012-11-16 14:45:00,
2012-11-16 09:46:00,59.8,57.8,30.19,East,79,0.0,7.0,93,0.00,,---,0.00,218.00,VWS V14.01,2012-11-16 14:46:00,
2012-11-16 09:47:00,59.9,57.9,30.19,ENE,70,2.0,7.0,93,0.00,,---,0.00,279.00,VWS V14.01,2012-11-16 14:47:00,
2012-11-16 09:48:00,60.0,58.0,30.19,East,80,4.0,7.0,93,0.00,,---,0.00,320.00,VWS V14.01,2012-11-16 14:48:00,
2012-11-16 09:49:00,60.1,57.8,30.19,East,94,2.0,7.0,92,0.00,,---,0.00,320.00,VWS V14.01,2012-11-16 14:49:00,
2012-11-16 09:50:00,60.2,57.9,30.19,NW,324,0.0,7.0,92,0.00,,---,0.00,237.00,VWS V14.01,2012-11-16 14:50:00,
2012-11-16 09:51:00,59.1,57.4,30.19,NNE,32,1.0,7.0,94,0.00,,---,0.00,288.00,VWS V14.01,2012-11-16 14:51:00,
2012-11-16 09:52:00,60.4,57.8,30.19,East,82,1.0,7.0,91,0.00,,---,0.00,265.00,VWS V14.01,2012-11-16 14:52:00,
2012-11-16 09:53:00,60.5,57.9,30.19,ENE,67,4.0,7.0,91,0.00,,---,0.00,260.00,VWS V14.01,2012-11-16 14:53:00,
2012-11-16 09:54:00,60.5,57.6,30.19,NE,43,0.0,7.0,90,0.00,,---,0.00,260.00,VWS V14.01,2012-11-16 14:54:00,
2012-11-16 09:55:00,60.7,58.1,30.19,North,3,0.0,7.0,91,0.00,,---,0.00,262.00,VWS V14.01,2012-11-16 14:55:00,
2012-11-16 09:56:00,59.9,57.9,30.19,ENE,70,2.0,7.0,93,0.00,,---,0.00,279.00,VWS V14.01,2012-11-16 14:56:00,
2012-11-16 09:57:00,60.9,58.0,30.19,East,80,2.0,7.0,90,0.00,,---,0.00,251.00,VWS V14.01,2012-11-16 14:57:00,
2012-11-16 09:58:00,60.9,57.6,30.19,East,79,4.0,7.0,89,0.00,,---,0.00,251.00,VWS V14.01,2012-11-16 14:58:00,
2012-11-16 09:59:00,60.9,57.6,30.19,East,97,5.0,7.0,89,0.00,,---,0.00,265.00,VWS V14.01,2012-11-16 14:59:00,
2012-11-16 10:00:00,60.9,57.6,30.19,East,80,1.0,7.0,89,0.00,,---,0.00,276.00,VWS V14.01,2012-11-16 15:00:00,
2012-11-16 10:01:00,60.4,57.8,30.19,East,82,2.0,7.0,91,0.00,,---,0.00,265.00,VWS V14.01,2012-11-16 15:01:00,
2012-11-16 10:02:00,61.0,57.7,30.19,East,99,0.0,4.0,89,0.00,,---,0.00,283.00,VWS V14.01,2012-11-16 15:02:00,
2012-11-16 10:03:00,61.1,57.8,30.19,East,85,0.0,4.0,89,0.00,,---,0.00,237.00,VWS V14.01,2012-11-16 15:03:00,
2012-11-16 10:04:00,61.3,58.0,30.19,East,85,1.0,4.0,89,0.00,,---,0.00,225.00,VWS V14.01,2012-11-16 15:04:00,
2012-11-16 10:05:00,61.4,58.1,30.19,East,85,0.0,4.0,89,0.00,,---,0.00,216.00,VWS V14.01,2012-11-16 15:05:00,
2012-11-16 10:06:00,60.9,58.0,30.19,ENE,62,2.0,7.0,90,0.00,,---,0.00,251.00,VWS V14.01,2012-11-16 15:06:00,
2012-11-16 10:07:00,61.5,58.2,30.19,NW,319,3.0,4.0,89,0.00,,---,0.00,207.00,VWS V14.01,2012-11-16 15:07:00,
2012-11-16 10:08:00,61.6,58.3,30.19,NE,37,5.0,5.0,89,0.00,,---,0.00,193.00,VWS V14.01,2012-11-16 15:08:00,
2012-11-16 10:09:00,61.6,58.3,30.19,NNE,16,0.0,5.0,89,0.00,,---,0.00,179.00,VWS V14.01,2012-11-16 15:09:00,
2012-11-16 10:10:00,61.5,57.6,30.19,North,356,0.0,5.0,87,0.00,,---,0.00,179.00,VWS V14.01,2012-11-16 15:10:00,
2012-11-16 10:11:00,61.0,57.7,30.19,East,99,0.0,4.0,89,0.00,,---,0.00,283.00,VWS V14.01,2012-11-16 15:11:00,
2012-11-16 10:12:00,61.6,58.3,30.19,ENE,75,2.0,5.0,89,0.00,,---,0.00,178.00,VWS V14.01,2012-11-16 15:12:00,
2012-11-16 10:13:00,61.5,57.9,30.19,ENE,57,1.0,5.0,88,0.00,,---,0.00,171.00,VWS V14.01,2012-11-16 15:13:00,
2012-11-16 10:14:00,61.4,57.8,30.19,NE,34,1.0,5.0,88,0.00,,---,0.00,155.00,VWS V14.01,2012-11-16 15:14:00,
2012-11-16 10:15:00,61.3,57.7,30.19,ENE,60,1.0,5.0,88,0.00,,---,0.00,155.00,VWS V14.01,2012-11-16 15:15:00,
2012-11-16 10:16:00,61.3,57.7,30.19,NNE,21,0.0,5.0,88,0.00,,---,0.00,130.00,VWS V14.01,2012-11-16 15:16:00,
2012-11-16 10:17:00,61.6,58.3,30.19,ENE,76,3.0,4.0,89,0.00,,---,0.00,206.00,VWS V14.01,2012-11-16 15:17:00,
2012-11-16 10:18:00,61.3,57.7,30.19,NNE,21,0.0,5.0,88,0.00,,---,0.00,125.00,VWS V14.01,2012-11-16 15:18:00,
2012-11-16 10:19:00,61.3,57.7,30.19,ENE,62,5.0,5.0,88,0.00,,---,0.00,125.00,VWS V14.01,2012-11-16 15:19:00,
2012-11-16 10:20:00,61.2,57.6,30.19,ENE,57,1.0,5.0,88,0.00,,---,0.00,135.00,VWS V14.01,2012-11-16 15:20:00,
2012-11-16 10:21:00,61.2,57.3,30.19,East,91,2.0,5.0,87,0.00,,---,0.00,135.00,VWS V14.01,2012-11-16 15:21:00,
2012-11-16 10:22:00,61.5,57.9,30.19,ENE,57,1.0,5.0,88,0.00,,---,0.00,171.00,VWS V14.01,2012-11-16 15:22:00,
2012-11-16 10:23:00,61.1,57.5,30.19,East,93,4.0,5.0,88,0.00,,---,0.00,123.00,VWS V14.01,2012-11-16 15:23:00,
2012-11-16 10:24:00,61.0,57.1,30.19,ENE,68,4.0,7.0,87,0.00,,---,0.00,107.00,VWS V14.01,2012-11-16 15:24:00,
2012-11-16 10:25:00,61.0,57.1,30.19,ENE,64,1.0,7.0,87,0.00,,---,0.00,107.00,VWS V14.01,2012-11-16 15:25:00,
2012-11-16 10:26:00,60.9,57.0,30.19,ENE,67,5.0,7.0,87,0.00,,---,0.00,107.00,VWS V14.01,2012-11-16 15:26:00,
2012-11-16 10:27:00,61.3,57.7,30.19,NNE,21,0.0,5.0,88,0.00,,---,0.00,125.00,VWS V14.01,2012-11-16 15:27:00,
2012-11-16 10:28:00,60.9,57.0,30.19,NE,46,7.0,9.0,87,0.00,,---,0.00,88.00,VWS V14.01,2012-11-16 15:28:00,
2012-11-16 10:29:00,60.8,56.9,30.19,ENE,70,2.0,9.0,87,0.00,,---,0.00,84.00,VWS V14.01,2012-11-16 15:29:00,
2012-11-16 10:30:00,60.8,56.9,30.19,ENE,65,1.0,9.0,87,0.00,,---,0.00,84.00,VWS V14.01,2012-11-16 15:30:00,
2012-11-16 10:31:00,60.8,57.2,30.19,ENE,58,2.0,9.0,88,0.00,,---,0.00,90.00,VWS V14.01,2012-11-16 15:31:00,
2012-11-16 10:32:00,61.1,57.5,30.19,East,93,4.0,5.0,88,0.00,,---,0.00,123.00,VWS V14.01,2012-11-16 15:32:00,
2012-11-16 10:33:00,60.7,56.8,30.19,East,91,3.0,9.0,87,0.00,,---,0.00,100.00,VWS V14.01,2012-11-16 15:33:00,
2012-11-16 10:34:00,60.7,56.8,30.19,East,92,1.0,9.0,87,0.00,,---,0.00,98.00,VWS V14.01,2012-11-16 15:34:00,
2012-11-16 10:35:00,60.6,56.7,30.19,NNE,25,4.0,9.0,87,0.00,,---,0.00,97.00,VWS V14.01,2012-11-16 15:35:00,
2012-11-16 10:36:00,60.6,56.7,30.19,ENE,68,4.0,9.0,87,0.00,,---,0.00,97.00,VWS V14.01,2012-11-16 15:36:00,
2012-11-16 10:37:00,60.6,57.0,30.19,ENE,66,1.0,9.0,88,0.00,,---,0.00,93.00,VWS V14.01,2012-11-16 15:37:00,
2012-11-16 10:38:00,60.7,57.1,30.19,ENE,60,2.0,9.0,88,0.00,,---,0.00,97.00,VWS V14.01,2012-11-16 15:38:00,
2012-11-16 10:39:00,60.7,57.1,30.19,NE,54,0.0,9.0,88,0.00,,---,0.00,97.00,VWS V14.01,2012-11-16 15:39:00,
2012-11-16 10:40:00,60.8,57.2,30.19,East,87,5.0,9.0,88,0.00,,---,0.00,97.00,VWS V14.01,2012-11-16 15:40:00,
2012-11-16 10:41:00,60.8,57.2,30.19,East,87,4.0,9.0,88,0.00,,---,0.00,97.00,VWS V14.01,2012-11-16 15:41:00,
2012-11-16 10:42:00,60.7,56.8,30.19,East,79,4.0,9.0,87,0.00,,---,0.00,100.00,VWS V14.01,2012-11-16 15:42:00,
2012-11-16 10:43:00,60.7,56.8,30.19,East,92,3.0,9.0,87,0.00,,---,0.00,100.00,VWS V14.01,2012-11-16 15:43:00,
2012-11-16 10:44:00,60.7,56.8,30.19,ENE,71,2.0,9.0,87,0.00,,---,0.00,100.00,VWS V14.01,2012-11-16 15:44:00,
2012-11-16 10:45:00,60.8,57.2,30.19,ENE,74,1.0,9.0,88,0.00,,---,0.00,100.00,VWS V14.01,2012-11-16 15:45:00,
2012-11-16 10:46:00,60.8,57.2,30.19,NE,51,0.0,9.0,88,0.00,,---,0.00,100.00,VWS V14.01,2012-11-16 15:46:00,
2012-11-16 10:47:00,60.7,57.1,30.19,ENE,60,2.0,9.0,88,0.00,,---,0.00,97.00,VWS V14.01,2012-11-16 15:47:00,
2012-11-16 10:48:00,60.9,57.6,30.19,ENE,75,1.0,9.0,89,0.00,,---,0.00,100.00,VWS V14.01,2012-11-16 15:48:00,
2012-11-16 10:49:00,61.0,57.7,30.19,East,83,2.0,9.0,89,0.00,,---,0.00,95.00,VWS V14.01,2012-11-16 15:49:00,
2012-11-16 10:50:00,61.0,57.4,30.19,ENE,77,3.0,9.0,88,0.00,,---,0.00,95.00,VWS V14.01,2012-11-16 15:50:00,
2012-11-16 10:51:00,60.9,57.3,30.19,East,83,7.0,9.0,88,0.00,,---,0.00,95.00,VWS V14.01,2012-11-16 15:51:00,
2012-11-16 10:52:00,60.9,57.3,30.19,East,87,3.0,9.0,88,0.00,,---,0.00,113.00,VWS V14.01,2012-11-16 15:52:00,
2012-11-16 10:53:00,60.7,56.8,30.19,East,86,0.0,9.0,87,0.00,,---,0.00,100.00,VWS V14.01,2012-11-16 15:53:00,
2012-11-16 10:54:00,60.8,57.2,30.19,SE,127,1.0,9.0,88,0.00,,---,0.00,88.00,VWS V14.01,2012-11-16 15:54:00,
2012-11-16 10:55:00,60.8,57.2,30.19,NE,51,4.0,9.0,88,0.00,,---,0.00,86.00,VWS V14.01,2012-11-16 15:55:00,
2012-11-16 10:56:00,60.7,57.1,30.19,ENE,74,0.0,9.0,88,0.00,,---,0.00,120.00,VWS V14.01,2012-11-16 15:56:00,
2012-11-16 10:57:00,60.7,57.1,30.19,ENE,60,5.0,9.0,88,0.00,,---,0.00,113.00,VWS V14.01,2012-11-16 15:57:00,
2012-11-16 10:58:00,60.9,57.6,30.19,ENE,57,3.0,9.0,89,0.00,,---,0.00,98.00,VWS V14.01,2012-11-16 15:58:00,
2012-11-16 10:59:00,60.7,57.1,30.19,ENE,61,0.0,9.0,88,0.00,,---,0.00,113.00,VWS V14.01,2012-11-16 15:59:00,
2012-11-16 11:00:00,60.8,57.2,30.19,ESE,102,4.0,6.0,88,0.00,,---,0.00,169.00,VWS V14.01,2012-11-16 16:00:00,
2012-11-16 11:01:00,60.7,57.1,30.19,ESE,104,3.0,6.0,88,0.00,,---,0.00,169.00,VWS V14.01,2012-11-16 16:01:00,
2012-11-16 11:02:00,60.7,56.8,30.19,NE,56,5.0,6.0,87,0.00,,---,0.00,225.00,VWS V14.01,2012-11-16 16:02:00,
2012-11-16 11:03:00,60.8,57.2,30.19,SE,127,2.0,9.0,88,0.00,,---,0.00,88.00,VWS V14.01,2012-11-16 16:03:00,
2012-11-16 11:04:00,60.8,56.9,30.19,North,2,2.0,6.0,87,0.00,,---,0.00,269.00,VWS V14.01,2012-11-16 16:04:00,
2012-11-16 11:05:00,60.9,57.0,30.19,ENE,68,0.0,6.0,87,0.00,,---,0.00,251.00,VWS V14.01,2012-11-16 16:05:00,
2012-11-16 11:06:00,61.0,57.7,30.19,ENE,77,5.0,6.0,89,0.00,,---,0.00,236.00,VWS V14.01,2012-11-16 16:06:00,
2012-11-16 11:07:00,61.1,57.2,30.19,North,354,1.0,6.0,87,0.00,,---,0.00,236.00,VWS V14.01,2012-11-16 16:07:00,
2012-11-16 11:08:00,61.2,57.6,30.19,East,93,2.0,7.0,88,0.00,,---,0.00,195.00,VWS V14.01,2012-11-16 16:08:00,
2012-11-16 11:09:00,60.8,57.2,30.19,ENE,59,6.0,9.0,88,0.00,,---,0.00,169.00,VWS V14.01,2012-11-16 16:09:00,
2012-11-16 11:10:00,61.2,57.3,30.19,ESE,107,3.0,7.0,87,0.00,,---,0.00,199.00,VWS V14.01,2012-11-16 16:10:00,
2012-11-16 11:11:00,61.2,57.3,30.19,East,84,2.0,8.0,87,0.00,,---,0.00,214.00,VWS V14.01,2012-11-16 16:11:00,
2012-11-16 11:12:00,61.2,57.0,30.19,East,96,2.0,8.0,86,0.00,,---,0.00,229.00,VWS V14.01,2012-11-16 16:12:00,
2012-11-16 11:13:00,61.2,57.0,30.18,ENE,59,0.0,8.0,86,0.00,,---,0.00,236.00,VWS V14.01,2012-11-16 16:13:00,
2012-11-16 11:14:00,60.9,57.0,30.19,ENE,68,0.0,6.0,87,0.00,,---,0.00,251.00,VWS V14.01,2012-11-16 16:14:00,
2012-11-16 11:15:00,61.4,57.5,30.19,ENE,57,2.0,8.0,87,0.00,,---,0.00,206.00,VWS V14.01,2012-11-16 16:15:00,
2012-11-16 11:16:00,61.4,57.5,30.19,ENE,74,1.0,8.0,87,0.00,,---,0.00,206.00,VWS V14.01,2012-11-16 16:16:00,
2012-11-16 11:17:00,61.5,57.6,30.19,NE,50,1.0,8.0,87,0.00,,---,0.00,206.00,VWS V14.01,2012-11-16 16:17:00,
2012-11-16 11:18:00,61.6,57.7,30.18,North,359,1.0,8.0,87,0.00,,---,0.00,151.00,VWS V14.01,2012-11-16 16:18:00,
2012-11-16 11:19:00,61.6,57.7,30.19,East,98,2.0,8.0,87,0.00,,---,0.00,137.00,VWS V14.01,2012-11-16 16:19:00,
2012-11-16 11:20:00,61.2,57.3,30.19,East,101,8.0,8.0,87,0.00,,---,0.00,214.00,VWS V14.01,2012-11-16 16:20:00,
2012-11-16 11:21:00,61.5,57.6,30.19,ENE,58,1.0,8.0,87,0.00,,---,0.00,132.00,VWS V14.01,2012-11-16 16:21:00,
2012-11-16 11:22:00,61.5,57.6,30.19,ENE,58,0.0,8.0,87,0.00,,---,0.00,125.00,VWS V14.01,2012-11-16 16:22:00,
2012-11-16 11:23:00,61.5,57.6,30.19,NNW,345,0.0,8.0,87,0.00,,---,0.00,121.00,VWS V14.01,2012-11-16 16:23:00,
2012-11-16 11:24:00,61.4,57.5,30.19,ENE,58,0.0,8.0,87,0.00,,---,0.00,121.00,VWS V14.01,2012-11-16 16:24:00,
2012-11-16 11:25:00,61.4,57.5,30.19,ENE,74,1.0,8.0,87,0.00,,---,0.00,206.00,VWS V14.01,2012-11-16 16:25:00,
2012-11-16 11:26:00,61.4,57.5,30.18,East,89,2.0,8.0,87,0.00,,---,0.00,127.00,VWS V14.01,2012-11-16 16:26:00,
2012-11-16 11:27:00,61.4,57.5,30.18,ENE,65,2.0,8.0,87,0.00,,---,0.00,125.00,VWS V14.01,2012-11-16 16:27:00,
2012-11-16 11:28:00,61.4,57.5,30.18,ENE,60,0.0,8.0,87,0.00,,---,0.00,125.00,VWS V14.01,2012-11-16 16:28:00,
2012-11-16 11:29:00,61.4,57.8,30.18,ENE,60,0.0,8.0,88,0.00,,---,0.00,118.00,VWS V14.01,2012-11-16 16:29:00,
2012-11-16 11:30:00,61.5,57.6,30.19,ENE,61,2.0,8.0,87,0.00,,---,0.00,132.00,VWS V14.01,2012-11-16 16:30:00,
2012-11-16 11:31:00,61.5,57.9,30.18,ENE,60,1.0,8.0,88,0.00,,---,0.00,114.00,VWS V14.01,2012-11-16 16:31:00,
2012-11-16 11:32:00,61.4,57.5,30.19,ENE,60,0.0,8.0,87,0.00,,---,0.00,113.00,VWS V14.01,2012-11-16 16:32:00,
2012-11-16 11:33:00,61.4,57.8,30.19,ENE,60,1.0,8.0,88,0.00,,---,0.00,113.00,VWS V14.01,2012-11-16 16:33:00,
2012-11-16 11:34:00,61.4,57.8,30.18,ENE,60,0.0,8.0,88,0.00,,---,0.00,118.00,VWS V14.01,2012-11-16 16:34:00,
2012-11-16 11:35:00,61.4,57.5,30.19,ENE,65,0.0,8.0,87,0.00,,---,0.00,127.00,VWS V14.01,2012-11-16 16:35:00,
2012-11-16 11:36:00,61.4,57.5,30.18,ENE,59,3.0,8.0,87,0.00,,---,0.00,104.00,VWS V14.01,2012-11-16 16:36:00,
2012-11-16 11:37:00,61.4,57.5,30.18,ENE,57,2.0,8.0,87,0.00,,---,0.00,104.00,VWS V14.01,2012-11-16 16:37:00,
2012-11-16 11:38:00,61.4,57.5,30.18,ENE,57,0.0,8.0,87,0.00,,---,0.00,90.00,VWS V14.01,2012-11-16 16:38:00,
2012-11-16 11:39:00,61.3,57.4,30.18,ENE,57,0.0,8.0,87,0.00,,---,0.00,90.00,VWS V14.01,2012-11-16 16:39:00,
2012-11-16 11:40:00,61.5,57.9,30.18,ENE,60,1.0,8.0,88,0.00,,---,0.00,114.00,VWS V14.01,2012-11-16 16:40:00,
2012-11-16 11:41:00,61.3,57.4,30.18,ENE,78,0.0,8.0,87,0.00,,---,0.00,107.00,VWS V14.01,2012-11-16 16:41:00,
2012-11-16 11:42:00,61.3,57.1,30.18,ESE,106,0.0,8.0,86,0.00,,---,0.00,111.00,VWS V14.01,2012-11-16 16:42:00,
2012-11-16 11:43:00,61.3,57.1,30.18,ENE,75,3.0,8.0,86,0.00,,---,0.00,104.00,VWS V14.01,2012-11-16 16:43:00,
2012-11-16 11:44:00,61.3,57.4,30.18,NE,39,1.0,8.0,87,0.00,,---,0.00,104.00,VWS V14.01,2012-11-16 16:44:00,
2012-11-16 11:45:00,61.4,57.5,30.18,ENE,57,2.0,8.0,87,0.00,,---,0.00,111.00,VWS V14.01,2012-11-16 16:45:00,
2012-11-16 11:46:00,61.4,57.8,30.18,NE,39,0.0,8.0,88,0.00,,---,0.00,104.00,VWS V14.01,2012-11-16 16:46:00,
2012-11-16 11:47:00,61.4,57.5,30.18,NE,39,0.0,8.0,87,0.00,,---,0.00,104.00,VWS V14.01,2012-11-16 16:47:00,
2012-11-16 11:48:00,61.4,57.8,30.18,NE,39,0.0,8.0,88,0.00,,---,0.00,107.00,VWS V14.01,2012-11-16 16:48:00,
2012-11-16 11:49:00,61.5,57.9,30.18,North,349,0.0,8.0,88,0.00,,---,0.00,114.00,VWS V14.01,2012-11-16 16:49:00,
2012-11-16 11:50:00,61.3,57.4,30.18,ENE,78,0.0,8.0,87,0.00,,---,0.00,107.00,VWS V14.01,2012-11-16 16:50:00,
2012-11-16 11:51:00,61.5,57.9,30.18,North,349,0.0,8.0,88,0.00,,---,0.00,135.00,VWS V14.01,2012-11-16 16:51:00,
2012-11-16 11:52:00,61.5,57.9,30.18,North,349,0.0,8.0,88,0.00,,---,0.00,144.00,VWS V14.01,2012-11-16 16:52:00,
2012-11-16 11:53:00,61.6,58.0,30.18,NE,53,3.0,8.0,88,0.00,,---,0.00,176.00,VWS V14.01,2012-11-16 16:53:00,
2012-11-16 11:54:00,61.6,58.0,30.18,NNE,33,1.0,8.0,88,0.00,,---,0.00,171.00,VWS V14.01,2012-11-16 16:54:00,
2012-11-16 11:55:00,61.6,57.7,30.18,NNE,33,0.0,8.0,87,0.00,,---,0.00,155.00,VWS V14.01,2012-11-16 16:55:00,
2012-11-16 11:56:00,61.4,57.5,30.18,NE,39,0.0,8.0,87,0.00,,---,0.00,104.00,VWS V14.01,2012-11-16 16:56:00,
2012-11-16 11:57:00,61.6,57.4,30.18,NE,48,0.0,8.0,86,0.00,,---,0.00,127.00,VWS V14.01,2012-11-16 16:57:00,
2012-11-16 11:58:00,61.7,57.8,30.18,East,79,0.0,8.0,87,0.00,,---,0.00,100.00,VWS V14.01,2012-11-16 16:58:00,
2012-11-16 11:59:00,61.7,57.5,30.18,East,91,2.0,8.0,86,0.00,,---,0.00,120.00,VWS V14.01,2012-11-16 16:59:00,
2012-11-16 12:00:00,61.6,57.4,30.18,East,91,1.0,1.0,86,0.00,,---,0.00,144.00,VWS V14.01,2012-11-16 17:00:00,
2012-11-16 12:01:00,61.5,57.9,30.18,North,349,0.0,8.0,88,0.00,,---,0.00,144.00,VWS V14.01,2012-11-16 17:01:00,
2012-11-16 12:02:00,61.6,57.4,30.18,ENE,73,0.0,4.0,86,0.00,,---,0.00,193.00,VWS V14.01,2012-11-16 17:02:00,
2012-11-16 12:03:00,61.7,57.8,30.18,ENE,73,0.0,4.0,87,0.00,,---,0.00,193.00,VWS V14.01,2012-11-16 17:03:00,
2012-11-16 12:04:00,61.8,57.9,30.18,ENE,72,0.0,4.0,87,0.00,,---,0.00,202.00,VWS V14.01,2012-11-16 17:04:00,
2012-11-16 12:05:00,61.9,58.0,30.18,NNE,18,0.0,4.0,87,0.00,,---,0.00,197.00,VWS V14.01,2012-11-16 17:05:00,
2012-11-16 12:06:00,61.6,57.4,30.18,NE,48,0.0,8.0,86,0.00,,---,0.00,127.00,VWS V14.01,2012-11-16 17:06:00,
2012-11-16 12:07:00,62.1,58.2,30.17,NNW,348,0.0,4.0,87,0.00,,---,0.00,190.00,VWS V14.01,2012-11-16 17:07:00,
2012-11-16 12:08:00,62.1,58.2,30.17,NNW,348,0.0,4.0,87,0.00,,---,0.00,195.00,VWS V14.01,2012-11-16 17:08:00,
2012-11-16 12:09:00,62.2,58.3,30.17,NNW,348,0.0,4.0,87,0.00,,---,0.00,207.00,VWS V14.01,2012-11-16 17:09:00,
2012-11-16 12:10:00,62.3,58.4,30.17,NNW,348,0.0,4.0,87,0.00,,---,0.00,216.00,VWS V14.01,2012-11-16 17:10:00,
2012-11-16 12:11:00,61.6,57.4,30.18,ENE,73,0.0,4.0,86,0.00,,---,0.00,193.00,VWS V14.01,2012-11-16 17:11:00,
2012-11-16 12:12:00,62.5,58.6,30.17,NNW,348,0.0,4.0,87,0.00,,---,0.00,243.00,VWS V14.01,2012-11-16 17:12:00,
2012-11-16 12:13:00,62.6,58.7,30.17,North,351,0.0,4.0,87,0.00,,---,0.00,243.00,VWS V14.01,2012-11-16 17:13:00,
2012-11-16 12:14:00,62.7,58.8,30.17,East,89,1.0,4.0,87,0.00,,---,0.00,241.00,VWS V14.01,2012-11-16 17:14:00,
2012-11-16 12:15:00,62.7,58.1,30.17,NE,52,2.0,4.0,85,0.00,,---,0.00,239.00,VWS V14.01,2012-11-16 17:15:00,
2012-11-16 12:16:00,62.1,58.2,30.17,NNW,348,0.0,4.0,87,0.00,,---,0.00,190.00,VWS V14.01,2012-11-16 17:16:00,
2012-11-16 12:17:00,62.7,58.1,30.17,ENE,57,0.0,4.0,85,0.00,,---,0.00,193.00,VWS V14.01,2012-11-16 17:17:00,
2012-11-16 12:18:00,62.6,58.0,30.17,North,360,1.0,4.0,85,0.00,,---,0.00,186.00,VWS V14.01,2012-11-16 17:18:00,
2012-11-16 12:19:00,62.5,57.9,30.17,WNW,295,0.0,5.0,85,0.00,,---,0.00,186.00,VWS V14.01,2012-11-16 17:19:00,
2012-11-16 12:20:00,62.5,57.9,30.17,WNW,295,1.0,5.0,85,0.00,,---,0.00,186.00,VWS V14.01,2012-11-16 17:20:00,
2012-11-16 12:21:00,62.4,58.5,30.17,NNW,348,0.0,4.0,87,0.00,,---,0.00,243.00,VWS V14.01,2012-11-16 17:21:00,
2012-11-16 12:22:00,62.4,57.5,30.17,East,87,0.0,5.0,84,0.00,,---,0.00,186.00,VWS V14.01,2012-11-16 17:22:00,
2012-11-16 12:23:00,62.3,57.7,30.17,East,87,0.0,5.0,85,0.00,,---,0.00,188.00,VWS V14.01,2012-11-16 17:23:00,
2012-11-16 12:24:00,62.4,58.2,30.17,East,87,0.0,5.0,86,0.00,,---,0.00,185.00,VWS V14.01,2012-11-16 17:24:00,
2012-11-16 12:25:00,62.4,58.2,30.17,NE,46,0.0,5.0,86,0.00,,---,0.00,169.00,VWS V14.01,2012-11-16 17:25:00,
2012-11-16 12:26:00,62.7,58.1,30.17,ENE,57,0.0,4.0,85,0.00,,---,0.00,218.00,VWS V14.01,2012-11-16 17:26:00,
2012-11-16 12:27:00,62.4,57.8,30.16,NNW,333,3.0,5.0,85,0.00,,---,0.00,146.00,VWS V14.01,2012-11-16 17:27:00,
2012-11-16 12:28:00,62.3,57.7,30.16,NNW,336,2.0,5.0,85,0.00,,---,0.00,151.00,VWS V14.01,2012-11-16 17:28:00,
2012-11-16 12:29:00,62.3,57.7,30.16,North,6,0.0,5.0,85,0.00,,---,0.00,162.00,VWS V14.01,2012-11-16 17:29:00,
2012-11-16 12:30:00,62.3,58.1,30.16,North,6,0.0,5.0,86,0.00,,---,0.00,165.00,VWS V14.01,2012-11-16 17:30:00,
2012-11-16 12:31:00,62.4,58.2,30.17,East,87,0.0,5.0,86,0.00,,---,0.00,186.00,VWS V14.01,2012-11-16 17:31:00,
2012-11-16 12:32:00,62.3,58.1,30.16,North,6,0.0,5.0,86,0.00,,---,0.00,156.00,VWS V14.01,2012-11-16 17:32:00,
2012-11-16 12:33:00,62.3,58.1,30.16,East,100,1.0,5.0,86,0.00,,---,0.00,158.00,VWS V14.01,2012-11-16 17:33:00,
2012-11-16 12:34:00,62.3,58.1,30.16,East,97,1.0,5.0,86,0.00,,---,0.00,160.00,VWS V14.01,2012-11-16 17:34:00,
2012-11-16 12:35:00,62.2,58.0,30.16,NE,48,2.0,5.0,86,0.00,,---,0.00,160.00,VWS V14.01,2012-11-16 17:35:00,
2012-11-16 12:36:00,62.4,57.8,30.16,NNW,332,4.0,5.0,85,0.00,,---,0.00,146.00,VWS V14.01,2012-11-16 17:36:00,
2012-11-16 12:37:00,62.2,57.6,30.16,NE,47,0.0,5.0,85,0.00,,---,0.00,153.00,VWS V14.01,2012-11-16 17:37:00,
2012-11-16 12:38:00,62.2,58.0,30.16,ESE,112,0.0,5.0,86,0.00,,---,0.00,155.00,VWS V14.01,2012-11-16 17:38:00,
2012-11-16 12:39:00,62.2,57.6,30.16,ENE,72,3.0,5.0,85,0.00,,---,0.00,160.00,VWS V14.01,2012-11-16 17:39:00,
2012-11-16 12:40:00,62.1,57.5,30.16,East,86,0.0,5.0,85,0.00,,---,0.00,185.00,VWS V14.01,2012-11-16 17:40:00,
2012-11-16 12:41:00,62.3,58.1,30.16,North,6,0.0,5.0,86,0.00,,---,0.00,156.00,VWS V14.01,2012-11-16 17:41:00,
2012-11-16 12:42:00,62.3,58.1,30.15,ENE,73,0.0,5.0,86,0.00,,---,0.00,193.00,VWS V14.01,2012-11-16 17:42:00,
2012-11-16 12:43:00,62.4,58.5,30.15,East,82,1.0,5.0,87,0.00,,---,0.00,193.00,VWS V14.01,2012-11-16 17:43:00,
2012-11-16 12:44:00,62.4,57.8,30.15,NE,52,1.0,5.0,85,0.00,,---,0.00,197.00,VWS V14.01,2012-11-16 17:44:00,
2012-11-16 12:45:00,62.4,57.8,30.15,ENE,57,3.0,5.0,85,0.00,,---,0.00,206.00,VWS V14.01,2012-11-16 17:45:00,
2012-11-16 12:46:00,62.2,57.6,30.16,NE,46,0.0,5.0,85,0.00,,---,0.00,153.00,VWS V14.01,2012-11-16 17:46:00,
2012-11-16 12:47:00,62.5,57.9,30.15,ENE,71,0.0,5.0,85,0.00,,---,0.00,206.00,VWS V14.01,2012-11-16 17:47:00,
2012-11-16 12:48:00,62.6,58.4,30.15,ESE,103,2.0,5.0,86,0.00,,---,0.00,199.00,VWS V14.01,2012-11-16 17:48:00,
2012-11-16 12:49:00,62.6,57.7,30.15,ESE,103,0.0,5.0,84,0.00,,---,0.00,192.00,VWS V14.01,2012-11-16 17:49:00,
2012-11-16 12:50:00,62.6,58.0,30.15,East,85,2.0,5.0,85,0.00,,---,0.00,192.00,VWS V14.01,2012-11-16 17:50:00,
2012-11-16 12:51:00,62.3,58.1,30.15,ENE,73,0.0,5.0,86,0.00,,---,0.00,193.00,VWS V14.01,2012-11-16 17:51:00,
2012-11-16 12:52:00,62.6,57.7,30.15,East,81,0.0,5.0,84,0.00,,---,0.00,213.00,VWS V14.01,2012-11-16 17:52:00,
2012-11-16 12:53:00,62.7,58.1,30.15,NE,50,0.0,5.0,85,0.00,,---,0.00,251.00,VWS V14.01,2012-11-16 17:53:00,
2012-11-16 12:54:00,62.8,58.2,30.15,North,8,0.0,5.0,85,0.00,,---,0.00,258.00,VWS V14.01,2012-11-16 17:54:00,
2012-11-16 12:55:00,62.9,58.3,30.15,East,89,1.0,5.0,85,0.00,,---,0.00,258.00,VWS V14.01,2012-11-16 17:55:00,
2012-11-16 12:56:00,62.5,57.9,30.15,ENE,71,0.0,5.0,85,0.00,,---,0.00,206.00,VWS V14.01,2012-11-16 17:56:00,
2012-11-16 12:57:00,62.9,58.0,30.15,ENE,58,3.0,5.0,84,0.00,,---,0.00,260.00,VWS V14.01,2012-11-16 17:57:00,
2012-11-16 12:58:00,63.0,58.1,30.15,North,8,0.0,5.0,84,0.00,,---,0.00,285.00,VWS V14.01,2012-11-16 17:58:00,
2012-11-16 12:59:00,63.1,58.2,30.14,NE,40,0.0,5.0,84,0.00,,---,0.00,279.00,VWS V14.01,2012-11-16 17:59:00,
2012-11-16 13:00:00,63.1,57.9,30.14,ENE,58,0.0,0.0,83,0.00,,---,0.00,279.00,VWS V14.01,2012-11-16 18:00:00,
2012-11-16 13:01:00,62.6,57.7,30.15,East,81,0.0,5.0,84,0.00,,---,0.00,213.00,VWS V14.01,2012-11-16 18:01:00,
2012-11-16 13:02:00,63.1,57.5,30.14,NE,56,0.0,3.0,82,0.00,,---,0.00,279.00,VWS V14.01,2012-11-16 18:02:00,
2012-11-16 13:03:00,63.2,58.3,30.14,NE,56,0.0,3.0,84,0.00,,---,0.00,279.00,VWS V14.01,2012-11-16 18:03:00,
2012-11-16 13:04:00,63.4,58.8,30.14,NE,42,1.0,3.0,85,0.00,,---,0.00,278.00,VWS V14.01,2012-11-16 18:04:00,
2012-11-16 13:05:00,63.5,58.9,30.14,NNE,19,0.0,3.0,85,0.00,,---,0.00,287.00,VWS V14.01,2012-11-16 18:05:00,
2012-11-16 13:06:00,63.6,58.7,30.14,NNE,19,0.0,3.0,84,0.00,,---,0.00,297.00,VWS V14.01,2012-11-16 18:06:00,
2012-11-16 13:07:00,62.9,58.0,30.15,NE,56,4.0,5.0,84,0.00,,---,0.00,260.00,VWS V14.01,2012-11-16 18:07:00,
2012-11-16 13:08:00,63.7,58.5,30.14,North,358,1.0,3.0,83,0.00,,---,0.00,308.00,VWS V14.01,2012-11-16 18:08:00,
2012-11-16 13:09:00,63.6,58.3,30.14,ENE,58,3.0,7.0,83,0.00,,---,0.00,318.00,VWS V14.01,2012-11-16 18:09:00,
2012-11-16 13:10:00,63.6,58.0,30.14,ENE,75,2.0,7.0,82,0.00,,---,0.00,345.00,VWS V14.01,2012-11-16 18:10:00,
2012-11-16 13:11:00,63.6,58.3,30.14,NW,315,0.0,7.0,83,0.00,,---,0.00,364.00,VWS V14.01,2012-11-16 18:11:00,
2012-11-16 13:12:00,63.2,58.3,30.14,NE,56,0.0,3.0,84,0.00,,---,0.00,279.00,VWS V14.01,2012-11-16 18:12:00,
2012-11-16 13:13:00,63.9,59.0,30.14,East,101,0.0,7.0,84,0.00,,---,0.00,408.00,VWS V14.01,2012-11-16 18:13:00,
2012-11-16 13:14:00,63.9,58.6,30.13,North,10,1.0,7.0,83,0.00,,---,0.00,468.00,VWS V14.01,2012-11-16 18:14:00,
2012-11-16 13:15:00,64.0,59.1,30.13,North,10,0.0,7.0,84,0.00,,---,0.00,468.00,VWS V14.01,2012-11-16 18:15:00,
2012-11-16 13:16:00,64.2,59.3,30.13,NE,54,0.0,7.0,84,0.00,,---,0.00,636.00,VWS V14.01,2012-11-16 18:16:00,
2012-11-16 13:17:00,63.7,58.5,30.14,NNW,339,0.0,3.0,83,0.00,,---,0.00,308.00,VWS V14.01,2012-11-16 18:17:00,
2012-11-16 13:18:00,64.7,59.8,30.13,ENE,64,5.0,7.0,84,0.00,,---,0.00,636.00,VWS V14.01,2012-11-16 18:18:00,
2012-11-16 13:19:00,64.6,58.7,30.13,NE,48,4.0,7.0,81,0.00,,---,0.00,376.00,VWS V14.01,2012-11-16 18:19:00,
2012-11-16 13:20:00,64.6,58.7,30.13,East,80,0.0,7.0,81,0.00,,---,0.00,376.00,VWS V14.01,2012-11-16 18:20:00,
2012-11-16 13:21:00,64.6,58.7,30.13,NNW,331,2.0,7.0,81,0.00,,---,0.00,334.00,VWS V14.01,2012-11-16 18:21:00,
2012-11-16 13:22:00,63.9,59.0,30.14,East,101,0.0,7.0,84,0.00,,---,0.00,408.00,VWS V14.01,2012-11-16 18:22:00,
2012-11-16 13:23:00,64.4,58.1,30.13,ENE,62,4.0,7.0,80,0.00,,---,0.00,359.00,VWS V14.01,2012-11-16 18:23:00,
2012-11-16 13:24:00,64.4,58.5,30.13,NE,47,1.0,7.0,81,0.00,,---,0.00,366.00,VWS V14.01,2012-11-16 18:24:00,
2012-11-16 13:25:00,64.3,58.0,30.12,NE,46,3.0,9.0,80,0.00,,---,0.00,420.00,VWS V14.01,2012-11-16 18:25:00,
2012-11-16 13:26:00,64.3,58.0,30.12,East,79,6.0,9.0,80,0.00,,---,0.00,466.00,VWS V14.01,2012-11-16 18:26:00,
2012-11-16 13:27:00,64.2,57.9,30.12,NE,45,3.0,9.0,80,0.00,,---,0.00,482.00,VWS V14.01,2012-11-16 18:27:00,
2012-11-16 13:28:00,64.6,58.7,30.13,NE,48,4.0,7.0,81,0.00,,---,0.00,376.00,VWS V14.01,2012-11-16 18:28:00,
2012-11-16 13:29:00,64.2,57.9,30.12,North,351,1.0,9.0,80,0.00,,---,0.00,420.00,VWS V14.01,2012-11-16 18:29:00,
2012-11-16 13:30:00,64.4,58.8,30.12,ENE,72,4.0,9.0,82,0.00,,---,0.00,471.00,VWS V14.01,2012-11-16 18:30:00,
2012-11-16 13:31:00,64.4,58.5,30.12,North,8,0.0,9.0,81,0.00,,---,0.00,471.00,VWS V14.01,2012-11-16 18:31:00,
2012-11-16 13:32:00,64.5,58.9,30.12,ENE,58,4.0,9.0,82,0.00,,---,0.00,492.00,VWS V14.01,2012-11-16 18:32:00,
2012-11-16 13:33:00,64.6,58.7,30.12,East,86,4.0,9.0,81,0.00,,---,0.00,417.00,VWS V14.01,2012-11-16 18:33:00,
2012-11-16 13:34:00,64.3,58.3,30.13,East,90,6.0,9.0,81,0.00,,---,0.00,420.00,VWS V14.01,2012-11-16 18:34:00,
2012-11-16 13:35:00,64.6,58.3,30.12,North,10,2.0,9.0,80,0.00,,---,0.00,406.00,VWS V14.01,2012-11-16 18:35:00,
2012-11-16 13:36:00,64.6,58.3,30.12,ESE,107,1.0,9.0,80,0.00,,---,0.00,415.00,VWS V14.01,2012-11-16 18:36:00,
2012-11-16 13:37:00,64.7,58.4,30.12,ENE,71,4.0,9.0,80,0.00,,---,0.00,464.00,VWS V14.01,2012-11-16 18:37:00,
2012-11-16 13:38:00,64.7,58.0,30.12,ESE,122,1.0,9.0,79,0.00,,---,0.00,475.00,VWS V14.01,2012-11-16 18:38:00,
2012-11-16 13:39:00,64.4,58.1,30.12,ENE,68,4.0,9.0,80,0.00,,---,0.00,471.00,VWS V14.01,2012-11-16 18:39:00,
2012-11-16 13:40:00,64.8,57.8,30.12,NE,35,4.0,9.0,78,0.00,,---,0.00,441.00,VWS V14.01,2012-11-16 18:40:00,
2012-11-16 13:41:00,64.8,58.5,30.12,East,81,9.0,12.0,80,0.00,,---,0.00,429.00,VWS V14.01,2012-11-16 18:41:00,
2012-11-16 13:42:00,64.8,57.8,30.12,ESE,108,1.0,12.0,78,0.00,,---,0.00,424.00,VWS V14.01,2012-11-16 18:42:00,
2012-11-16 13:43:00,64.7,58.0,30.12,East,95,1.0,12.0,79,0.00,,---,0.00,429.00,VWS V14.01,2012-11-16 18:43:00,
2012-11-16 13:44:00,64.6,58.3,30.12,East,97,1.0,9.0,80,0.00,,---,0.00,406.00,VWS V14.01,2012-11-16 18:44:00,
2012-11-16 13:45:00,64.8,58.1,30.12,ESE,112,0.0,12.0,79,0.00,,---,0.00,429.00,VWS V14.01,2012-11-16 18:45:00,
2012-11-16 13:46:00,64.8,58.5,30.12,NE,52,0.0,12.0,80,0.00,,---,0.00,624.00,VWS V14.01,2012-11-16 18:46:00,
2012-11-16 13:47:00,65.0,58.7,30.12,East,92,3.0,12.0,80,0.00,,---,0.00,613.00,VWS V14.01,2012-11-16 18:47:00,
2012-11-16 13:48:00,65.2,58.5,30.12,NNE,25,2.0,12.0,79,0.00,,---,0.00,613.00,VWS V14.01,2012-11-16 18:48:00,
2012-11-16 13:49:00,64.8,57.8,30.12,NNE,25,3.0,9.0,78,0.00,,---,0.00,441.00,VWS V14.01,2012-11-16 18:49:00,
2012-11-16 13:50:00,65.4,58.7,30.12,East,89,5.0,12.0,79,0.00,,---,0.00,613.00,VWS V14.01,2012-11-16 18:50:00,
2012-11-16 13:51:00,65.6,59.3,30.12,NNE,14,3.0,12.0,80,0.00,,---,0.00,659.00,VWS V14.01,2012-11-16 18:51:00,
2012-11-16 13:52:00,65.8,59.5,30.12,North,10,0.0,12.0,80,0.00,,---,0.00,659.00,VWS V14.01,2012-11-16 18:52:00,
2012-11-16 13:53:00,65.9,59.6,30.12,NNE,24,2.0,12.0,80,0.00,,---,0.00,659.00,VWS V14.01,2012-11-16 18:53:00,
2012-11-16 13:54:00,64.8,58.1,30.12,ESE,112,0.0,12.0,79,0.00,,---,0.00,429.00,VWS V14.01,2012-11-16 18:54:00,
2012-11-16 13:55:00,66.0,59.0,30.11,North,10,0.0,12.0,78,0.00,,---,0.00,677.00,VWS V14.01,2012-11-16 18:55:00,
2012-11-16 13:56:00,66.1,59.0,30.11,ENE,74,3.0,12.0,78,0.00,,---,0.00,541.00,VWS V14.01,2012-11-16 18:56:00,
2012-11-16 13:57:00,66.1,58.7,30.11,ESE,103,0.0,12.0,77,0.00,,---,0.00,541.00,VWS V14.01,2012-11-16 18:57:00,
2012-11-16 13:58:00,66.1,59.4,30.11,ESE,107,0.0,12.0,79,0.00,,---,0.00,541.00,VWS V14.01,2012-11-16 18:58:00,
2012-11-16 13:59:00,66.1,58.7,30.11,ENE,66,1.0,12.0,77,0.00,,---,0.00,578.00,VWS V14.01,2012-11-16 18:59:00,
2012-11-16 14:00:00,65.5,59.2,30.12,NE,40,3.0,12.0,80,0.00,,---,0.00,659.00,VWS V14.01,2012-11-16 19:00:00,
2012-11-16 14:01:00,66.3,59.2,30.11,East,81,1.0,3.0,78,0.00,,---,0.00,591.00,VWS V14.01,2012-11-16 19:01:00,
2012-11-16 14:02:00,66.3,58.9,30.11,ENE,59,2.0,3.0,77,0.00,,---,0.00,575.00,VWS V14.01,2012-11-16 19:02:00,
2012-11-16 14:03:00,66.5,59.1,30.11,West,265,1.0,4.0,77,0.00,,---,0.00,529.00,VWS V14.01,2012-11-16 19:03:00,
2012-11-16 14:04:00,66.5,59.1,30.11,North,360,0.0,4.0,77,0.00,,---,0.00,529.00,VWS V14.01,2012-11-16 19:04:00,
2012-11-16 14:05:00,66.4,59.0,30.11,NNE,23,2.0,4.0,77,0.00,,---,0.00,471.00,VWS V14.01,2012-11-16 19:05:00,
2012-11-16 14:06:00,66.1,59.0,30.11,North,11,0.0,12.0,78,0.00,,---,0.00,541.00,VWS V14.01,2012-11-16 19:06:00,
2012-11-16 14:07:00,66.3,59.2,30.11,NNE,28,0.0,4.0,78,0.00,,---,0.00,432.00,VWS V14.01,2012-11-16 19:07:00,
2012-11-16 14:08:00,66.3,59.6,30.11,NNE,29,0.0,4.0,79,0.00,,---,0.00,464.00,VWS V14.01,2012-11-16 19:08:00,
2012-11-16 14:09:00,66.2,59.5,30.11,East,82,1.0,5.0,79,0.00,,---,0.00,541.00,VWS V14.01,2012-11-16 19:09:00,
2012-11-16 14:10:00,66.2,59.5,30.11,ENE,74,1.0,5.0,79,0.00,,---,0.00,541.00,VWS V14.01,2012-11-16 19:10:00,
2012-11-16 14:11:00,66.3,59.2,30.11,East,81,3.0,3.0,78,0.00,,---,0.00,591.00,VWS V14.01,2012-11-16 19:11:00,
2012-11-16 14:12:00,66.3,59.2,30.11,NE,36,3.0,8.0,78,0.00,,---,0.00,499.00,VWS V14.01,2012-11-16 19:12:00,
2012-11-16 14:13:00,66.3,59.2,30.11,NNE,23,1.0,8.0,78,0.00,,---,0.00,499.00,VWS V14.01,2012-11-16 19:13:00,
2012-11-16 14:14:00,66.3,59.2,30.11,SE,145,4.0,8.0,78,0.00,,---,0.00,473.00,VWS V14.01,2012-11-16 19:14:00,
2012-11-16 14:15:00,66.4,59.0,30.11,NNE,20,0.0,4.0,77,0.00,,---,0.00,471.00,VWS V14.01,2012-11-16 19:15:00,
2012-11-16 14:16:00,66.2,58.4,30.11,ENE,64,0.0,8.0,76,0.00,,---,0.00,455.00,VWS V14.01,2012-11-16 19:16:00,
2012-11-16 14:17:00,66.2,58.8,30.11,East,100,1.0,8.0,77,0.00,,---,0.00,455.00,VWS V14.01,2012-11-16 19:17:00,
2012-11-16 14:18:00,66.2,58.8,30.11,ESE,118,1.0,8.0,77,0.00,,---,0.00,455.00,VWS V14.01,2012-11-16 19:18:00,
2012-11-16 14:19:00,66.3,59.2,30.11,East,80,1.0,8.0,78,0.00,,---,0.00,329.00,VWS V14.01,2012-11-16 19:19:00,
2012-11-16 14:20:00,66.3,59.2,30.11,East,79,2.0,8.0,78,0.00,,---,0.00,329.00,VWS V14.01,2012-11-16 19:20:00,
2012-11-16 14:21:00,66.3,59.6,30.11,East,92,3.0,7.0,79,0.00,,---,0.00,499.00,VWS V14.01,2012-11-16 19:21:00,
2012-11-16 14:22:00,66.2,58.4,30.11,NE,45,3.0,8.0,76,0.00,,---,0.00,283.00,VWS V14.01,2012-11-16 19:22:00,
2012-11-16 14:23:00,66.2,58.4,30.11,East,90,4.0,8.0,76,0.00,,---,0.00,355.00,VWS V14.01,2012-11-16 19:23:00,
2012-11-16 14:24:00,66.0,57.9,30.11,NE,53,2.0,8.0,75,0.00,,---,0.00,388.00,VWS V14.01,2012-11-16 19:24:00,
2012-11-16 14:25:00,65.9,58.5,30.11,ESE,114,7.0,8.0,77,0.00,,---,0.00,408.00,VWS V14.01,2012-11-16 19:25:00,
2012-11-16 14:26:00,66.2,58.8,30.11,East,100,1.0,8.0,77,0.00,,---,0.00,455.00,VWS V14.01,2012-11-16 19:26:00,
2012-11-16 14:27:00,65.8,58.0,30.11,North,351,1.0,8.0,76,0.00,,---,0.00,418.00,VWS V14.01,2012-11-16 19:27:00,
2012-11-16 14:28:00,65.8,58.4,30.11,North,1,1.0,8.0,77,0.00,,---,0.00,383.00,VWS V14.01,2012-11-16 19:28:00,
2012-11-16 14:29:00,65.8,58.4,30.11,NNW,339,1.0,8.0,77,0.00,,---,0.00,424.00,VWS V14.01,2012-11-16 19:29:00,
2012-11-16 14:30:00,65.8,58.4,30.11,NE,37,1.0,8.0,77,0.00,,---,0.00,364.00,VWS V14.01,2012-11-16 19:30:00,
2012-11-16 14:31:00,66.3,58.5,30.11,ENE,64,4.0,8.0,76,0.00,,---,0.00,283.00,VWS V14.01,2012-11-16 19:31:00,
2012-11-16 14:32:00,65.7,58.3,30.11,East,95,3.0,8.0,77,0.00,,---,0.00,258.00,VWS V14.01,2012-11-16 19:32:00,
2012-11-16 14:33:00,65.7,58.3,30.11,ESE,111,0.0,8.0,77,0.00,,---,0.00,258.00,VWS V14.01,2012-11-16 19:33:00,
2012-11-16 14:34:00,65.8,58.4,30.11,NE,49,3.0,8.0,77,0.00,,---,0.00,258.00,VWS V14.01,2012-11-16 19:34:00,
2012-11-16 14:35:00,66.0,58.6,30.11,East,79,1.0,8.0,77,0.00,,---,0.00,410.00,VWS V14.01,2012-11-16 19:35:00,
2012-11-16 14:36:00,65.8,58.0,30.11,NNE,22,2.0,8.0,76,0.00,,---,0.00,418.00,VWS V14.01,2012-11-16 19:36:00,
2012-11-16 14:37:00,66.3,58.5,30.11,ENE,67,0.0,8.0,76,0.00,,---,0.00,357.00,VWS V14.01,2012-11-16 19:37:00,
2012-11-16 14:38:00,66.3,58.9,30.11,East,87,2.0,8.0,77,0.00,,---,0.00,357.00,VWS V14.01,2012-11-16 19:38:00,
2012-11-16 14:39:00,66.4,59.0,30.11,NE,45,1.0,8.0,77,0.00,,---,0.00,357.00,VWS V14.01,2012-11-16 19:39:00,
2012-11-16 14:40:00,66.4,59.0,30.11,East,96,0.0,8.0,77,0.00,,---,0.00,357.00,VWS V14.01,2012-11-16 19:40:00,
2012-11-16 14:41:00,65.7,58.3,30.11,ENE,70,2.0,8.0,77,0.00,,---,0.00,258.00,VWS V14.01,2012-11-16 19:41:00,
2012-11-16 14:42:00,66.4,59.0,30.11,East,79,1.0,8.0,77,0.00,,---,0.00,436.00,VWS V14.01,2012-11-16 19:42:00,
2012-11-16 14:43:00,66.5,59.1,30.11,North,351,2.0,8.0,77,0.00,,---,0.00,276.00,VWS V14.01,2012-11-16 19:43:00,
2012-11-16 14:44:00,66.5,58.7,30.11,NE,55,4.0,8.0,76,0.00,,---,0.00,234.00,VWS V14.01,2012-11-16 19:44:00,
2012-11-16 14:45:00,66.4,58.2,30.11,ESE,118,3.0,8.0,75,0.00,,---,0.00,216.00,VWS V14.01,2012-11-16 19:45:00,
2012-11-16 14:46:00,66.3,58.5,30.11,ENE,67,0.0,8.0,76,0.00,,---,0.00,357.00,VWS V14.01,2012-11-16 19:46:00,
2012-11-16 14:47:00,66.3,58.2,30.11,North,359,0.0,8.0,75,0.00,,---,0.00,167.00,VWS V14.01,2012-11-16 19:47:00,
2012-11-16 14:48:00,66.3,58.9,30.11,NNE,29,1.0,8.0,77,0.00,,---,0.00,155.00,VWS V14.01,2012-11-16 19:48:00,
2012-11-16 14:49:00,66.2,58.8,30.11,SSE,149,3.0,8.0,77,0.00,,---,0.00,172.00,VWS V14.01,2012-11-16 19:49:00,
2012-11-16 14:50:00,66.1,58.3,30.11,SSW,193,2.0,8.0,76,0.00,,---,0.00,204.00,VWS V14.01,2012-11-16 19:50:00,
2012-11-16 14:51:00,66.4,59.0,30.11,East,79,1.0,8.0,77,0.00,,---,0.00,436.00,VWS V14.01,2012-11-16 19:51:00,
2012-11-16 14:52:00,66.0,58.2,30.11,ENE,75,0.0,8.0,76,0.00,,---,0.00,457.00,VWS V14.01,2012-11-16 19:52:00,
2012-11-16 14:53:00,66.1,58.7,30.11,East,85,3.0,8.0,77,0.00,,---,0.00,457.00,VWS V14.01,2012-11-16 19:53:00,
2012-11-16 14:54:00,66.2,58.8,30.11,ENE,77,3.0,8.0,77,0.00,,---,0.00,457.00,VWS V14.01,2012-11-16 19:54:00,
2012-11-16 14:55:00,66.2,58.4,30.11,SE,130,0.0,8.0,76,0.00,,---,0.00,241.00,VWS V14.01,2012-11-16 19:55:00,
2012-11-16 14:56:00,66.3,58.5,30.11,North,3,1.0,8.0,76,0.00,,---,0.00,411.00,VWS V14.01,2012-11-16 19:56:00,
2012-11-16 14:57:00,66.3,58.5,30.11,North,359,0.0,8.0,76,0.00,,---,0.00,155.00,VWS V14.01,2012-11-16 19:57:00,
2012-11-16 14:58:00,66.6,59.5,30.11,North,4,0.0,8.0,78,0.00,,---,0.00,399.00,VWS V14.01,2012-11-16 19:58:00,
2012-11-16 14:59:00,66.8,59.4,30.11,East,100,3.0,8.0,77,0.00,,---,0.00,366.00,VWS V14.01,2012-11-16 19:59:00,
2012-11-16 15:00:00,67.1,59.3,30.11,North,349,3.0,3.0,76,0.00,,---,0.00,366.00,VWS V14.01,2012-11-16 20:00:00,
2012-11-16 15:01:00,67.1,58.9,30.11,NNE,23,0.0,4.0,75,0.00,,---,0.00,185.00,VWS V14.01,2012-11-16 20:01:00,
2012-11-16 15:02:00,66.1,58.3,30.11,ENE,62,2.0,8.0,76,0.00,,---,0.00,457.00,VWS V14.01,2012-11-16 20:02:00,
2012-11-16 15:03:00,66.9,58.7,30.11,SSE,149,1.0,4.0,75,0.00,,---,0.00,169.00,VWS V14.01,2012-11-16 20:03:00,
2012-11-16 15:04:00,66.7,58.2,30.11,ESE,104,4.0,5.0,74,0.00,,---,0.00,172.00,VWS V14.01,2012-11-16 20:04:00,
2012-11-16 15:05:00,66.5,58.0,30.11,ENE,77,1.0,5.0,74,0.00,,---,0.00,167.00,VWS V14.01,2012-11-16 20:05:00,
2012-11-16 15:06:00,66.4,58.2,30.11,ENE,70,2.0,5.0,75,0.00,,---,0.00,167.00,VWS V14.01,2012-11-16 20:06:00,
2012-11-16 15:07:00,66.6,59.5,30.11,North,4,0.0,8.0,78,0.00,,---,0.00,399.00,VWS V14.01,2012-11-16 20:07:00,
2012-11-16 15:08:00,66.1,58.0,30.11,ENE,70,2.0,5.0,75,0.00,,---,0.00,132.00,VWS V14.01,2012-11-16 20:08:00,
2012-11-16 15:09:00,66.0,58.2,30.11,ENE,64,0.0,5.0,76,0.00,,---,0.00,141.00,VWS V14.01,2012-11-16 20:09:00,
2012-11-16 15:10:00,66.0,58.2,30.11,ESE,112,1.0,5.0,76,0.00,,---,0.00,151.00,VWS V14.01,2012-11-16 20:10:00,
2012-11-16 15:11:00,65.9,58.1,30.11,SSE,156,1.0,5.0,76,0.00,,---,0.00,149.00,VWS V14.01,2012-11-16 20:11:00,
2012-11-16 15:12:00,66.9,58.7,30.11,SSE,149,1.0,4.0,75,0.00,,---,0.00,169.00,VWS V14.01,2012-11-16 20:12:00,
2012-11-16 15:13:00,65.9,58.5,30.11,NE,37,2.0,5.0,77,0.00,,---,0.00,151.00,VWS V14.01,2012-11-16 20:13:00,
2012-11-16 15:14:00,65.8,58.4,30.11,NE,47,0.0,5.0,77,0.00,,---,0.00,148.00,VWS V14.01,2012-11-16 20:14:00,
2012-11-16 15:15:00,65.8,58.0,30.11,NE,56,3.0,5.0,76,0.00,,---,0.00,142.00,VWS V14.01,2012-11-16 20:15:00,
2012-11-16 15:16:00,65.7,57.9,30.11,ENE,68,1.0,5.0,76,0.00,,---,0.00,142.00,VWS V14.01,2012-11-16 20:16:00,
2012-11-16 15:17:00,66.1,58.0,30.11,ENE,74,3.0,5.0,75,0.00,,---,0.00,132.00,VWS V14.01,2012-11-16 20:17:00,
2012-11-16 15:18:00,65.7,58.3,30.10,East,88,1.0,6.0,77,0.00,,---,0.00,146.00,VWS V14.01,2012-11-16 20:18:00,
2012-11-16 15:19:00,65.7,58.3,30.10,NNE,33,0.0,6.0,77,0.00,,---,0.00,132.00,VWS V14.01,2012-11-16 20:19:00,
2012-11-16 15:20:00,65.7,58.7,30.10,North,356,3.0,6.0,78,0.00,,---,0.00,134.00,VWS V14.01,2012-11-16 20:20:00,
2012-11-16 15:21:00,65.7,58.3,30.10,NNE,21,1.0,6.0,77,0.00,,---,0.00,148.00,VWS V14.01,2012-11-16 20:21:00,
2012-11-16 15:22:00,65.6,58.6,30.10,NE,44,1.0,6.0,78,0.00,,---,0.00,185.00,VWS V14.01,2012-11-16 20:22:00,
2012-11-16 15:23:00,65.8,58.4,30.11,NE,47,0.0,5.0,77,0.00,,---,0.00,148.00,VWS V14.01,2012-11-16 20:23:00,
2012-11-16 15:24:00,65.8,59.1,30.10,ENE,70,2.0,6.0,79,0.00,,---,0.00,285.00,VWS V14.01,2012-11-16 20:24:00,
2012-11-16 15:25:00,66.0,59.0,30.10,NE,38,1.0,6.0,78,0.00,,---,0.00,285.00,VWS V14.01,2012-11-16 20:25:00,
2012-11-16 15:26:00,66.2,59.2,30.10,ENE,72,0.0,6.0,78,0.00,,---,0.00,241.00,VWS V14.01,2012-11-16 20:26:00,
2012-11-16 15:27:00,66.3,58.9,30.10,SE,135,1.0,6.0,77,0.00,,---,0.00,234.00,VWS V14.01,2012-11-16 20:27:00,
2012-11-16 15:28:00,66.4,58.6,30.10,NNW,338,1.0,7.0,76,0.00,,---,0.00,213.00,VWS V14.01,2012-11-16 20:28:00,
2012-11-16 15:29:00,65.7,58.7,30.10,North,353,2.0,6.0,78,0.00,,---,0.00,134.00,VWS V14.01,2012-11-16 20:29:00,
2012-11-16 15:30:00,66.5,58.7,30.10,NW,326,1.0,7.0,76,0.00,,---,0.00,146.00,VWS V14.01,2012-11-16 20:30:00,
2012-11-16 15:31:00,66.4,58.6,30.10,ESE,102,5.0,7.0,76,0.00,,---,0.00,97.00,VWS V14.01,2012-11-16 20:31:00,
2012-11-16 15:32:00,66.4,58.6,30.10,ENE,76,2.0,7.0,76,0.00,,---,0.00,90.00,VWS V14.01,2012-11-16 20:32:00,
2012-11-16 15:33:00,66.4,59.0,30.10,NNE,13,1.0,7.0,77,0.00,,---,0.00,91.00,VWS V14.01,2012-11-16 20:33:00,
2012-11-16 15:34:00,66.0,59.0,30.10,NE,38,1.0,6.0,78,0.00,,---,0.00,285.00,VWS V14.01,2012-11-16 20:34:00,
2012-11-16 15:35:00,66.2,58.8,30.10,East,100,0.0,7.0,77,0.00,,---,0.00,114.00,VWS V14.01,2012-11-16 20:35:00,
2012-11-16 15:36:00,66.1,58.7,30.10,NNW,343,0.0,7.0,77,0.00,,---,0.00,127.00,VWS V14.01,2012-11-16 20:36:00,
2012-11-16 15:37:00,66.1,59.0,30.10,NNW,335,1.0,7.0,78,0.00,,---,0.00,127.00,VWS V14.01,2012-11-16 20:37:00,
2012-11-16 15:38:00,66.1,59.4,30.10,NNW,335,1.0,7.0,79,0.00,,---,0.00,118.00,VWS V14.01,2012-11-16 20:38:00,
2012-11-16 15:39:00,66.0,59.3,30.10,NNW,335,0.0,7.0,79,0.00,,---,0.00,105.00,VWS V14.01,2012-11-16 20:39:00,
2012-11-16 15:40:00,66.4,58.6,30.10,ESE,102,5.0,7.0,76,0.00,,---,0.00,97.00,VWS V14.01,2012-11-16 20:40:00,
2012-11-16 15:41:00,65.8,59.1,30.10,NNW,335,0.0,7.0,79,0.00,,---,0.00,128.00,VWS V14.01,2012-11-16 20:41:00,
2012-11-16 15:42:00,65.7,59.4,30.10,NNW,335,0.0,7.0,80,0.00,,---,0.00,139.00,VWS V14.01,2012-11-16 20:42:00,
2012-11-16 15:43:00,65.7,59.7,30.10,NNW,335,0.0,7.0,81,0.00,,---,0.00,139.00,VWS V14.01,2012-11-16 20:43:00,
2012-11-16 15:44:00,65.7,59.4,30.10,NNW,335,0.0,7.0,80,0.00,,---,0.00,139.00,VWS V14.01,2012-11-16 20:44:00,
2012-11-16 15:45:00,66.1,58.7,30.10,East,93,0.0,7.0,77,0.00,,---,0.00,114.00,VWS V14.01,2012-11-16 20:45:00,
2012-11-16 15:46:00,65.6,59.3,30.10,North,360,0.0,7.0,80,0.00,,---,0.00,95.00,VWS V14.01,2012-11-16 20:46:00,
2012-11-16 15:47:00,65.5,59.2,30.10,NNW,345,1.0,7.0,80,0.00,,---,0.00,95.00,VWS V14.01,2012-11-16 20:47:00,
2012-11-16 15:48:00,65.4,59.1,30.10,NNW,346,0.0,7.0,80,0.00,,---,0.00,132.00,VWS V14.01,2012-11-16 20:48:00,
2012-11-16 15:49:00,65.4,59.1,30.10,ENE,68,1.0,7.0,80,0.00,,---,0.00,132.00,VWS V14.01,2012-11-16 20:49:00,
2012-11-16 15:50:00,65.8,59.1,30.10,NNW,335,0.0,7.0,79,0.00,,---,0.00,128.00,VWS V14.01,2012-11-16 20:50:00,
2012-11-16 15:51:00,65.4,59.1,30.10,ENE,68,0.0,7.0,80,0.00,,---,0.00,111.00,VWS V14.01,2012-11-16 20:51:00,
2012-11-16 15:52:00,65.4,59.1,30.10,ENE,62,2.0,7.0,80,0.00,,---,0.00,105.00,VWS V14.01,2012-11-16 20:52:00,
2012-11-16 15:53:00,65.5,59.2,30.10,NNE,16,0.0,7.0,80,0.00,,---,0.00,109.00,VWS V14.01,2012-11-16 20:53:00,
2012-11-16 15:54:00,65.5,59.2,30.10,ENE,62,0.0,7.0,80,0.00,,---,0.00,109.00,VWS V14.01,2012-11-16 20:54:00,
2012-11-16 15:55:00,65.6,59.3,30.10,North,360,0.0,7.0,80,0.00,,---,0.00,95.00,VWS V14.01,2012-11-16 20:55:00,
2012-11-16 15:56:00,65.6,59.3,30.10,NE,40,0.0,7.0,80,0.00,,---,0.00,105.00,VWS V14.01,2012-11-16 20:56:00,
2012-11-16 15:57:00,65.6,58.9,30.10,NE,50,1.0,7.0,79,0.00,,---,0.00,105.00,VWS V14.01,2012-11-16 20:57:00,
2012-11-16 15:58:00,65.6,58.6,30.10,NE,40,1.0,7.0,78,0.00,,---,0.00,98.00,VWS V14.01,2012-11-16 20:58:00,
2012-11-16 15:59:00,65.6,58.6,30.10,ENE,70,0.0,7.0,78,0.00,,---,0.00,84.00,VWS V14.01,2012-11-16 20:59:00,
2012-11-16 16:00:00,65.6,58.6,30.10,ENE,61,0.0,1.0,78,0.00,,---,0.00,84.00,VWS V14.01,2012-11-16 21:00:00,
2012-11-16 16:01:00,65.4,59.1,30.10,ENE,62,3.0,7.0,80,0.00,,---,0.00,105.00,VWS V14.01,2012-11-16 21:01:00,
2012-11-16 16:02:00,65.6,58.9,30.10,NNE,29,1.0,2.0,79,0.00,,---,0.00,81.00,VWS V14.01,2012-11-16 21:02:00,
2012-11-16 16:03:00,65.5,58.8,30.11,ENE,61,4.0,5.0,79,0.00,,---,0.00,84.00,VWS V14.01,2012-11-16 21:03:00,
2012-11-16 16:04:00,65.5,58.5,30.11,NE,54,0.0,5.0,78,0.00,,---,0.00,95.00,VWS V14.01,2012-11-16 21:04:00,
2012-11-16 16:05:00,65.5,58.8,30.11,East,85,2.0,5.0,79,0.00,,---,0.00,105.00,VWS V14.01,2012-11-16 21:05:00,
2012-11-16 16:06:00,65.6,58.9,30.10,NE,50,1.0,7.0,79,0.00,,---,0.00,105.00,VWS V14.01,2012-11-16 21:06:00,
2012-11-16 16:07:00,65.6,58.9,30.11,NE,44,2.0,5.0,79,0.00,,---,0.00,83.00,VWS V14.01,2012-11-16 21:07:00,
2012-11-16 16:08:00,65.6,58.6,30.10,ENE,68,3.0,8.0,78,0.00,,---,0.00,72.00,VWS V14.01,2012-11-16 21:08:00,
2012-11-16 16:09:00,65.6,58.2,30.10,ENE,61,3.0,8.0,77,0.00,,---,0.00,67.00,VWS V14.01,2012-11-16 21:09:00,
2012-11-16 16:10:00,65.5,58.1,30.10,NE,47,2.0,8.0,77,0.00,,---,0.00,65.00,VWS V14.01,2012-11-16 21:10:00,
2012-11-16 16:11:00,65.6,58.9,30.10,NNE,29,1.0,2.0,79,0.00,,---,0.00,81.00,VWS V14.01,2012-11-16 21:11:00,
2012-11-16 16:12:00,65.4,58.0,30.11,ENE,61,3.0,8.0,77,0.00,,---,0.00,69.00,VWS V14.01,2012-11-16 21:12:00,
2012-11-16 16:13:00,65.3,57.9,30.10,ENE,75,1.0,8.0,77,0.00,,---,0.00,62.00,VWS V14.01,2012-11-16 21:13:00,
2012-11-16 16:14:00,65.2,57.8,30.11,ENE,63,2.0,8.0,77,0.00,,---,0.00,62.00,VWS V14.01,2012-11-16 21:14:00,
2012-11-16 16:15:00,65.2,57.8,30.11,NE,41,1.0,8.0,77,0.00,,---,0.00,63.00,VWS V14.01,2012-11-16 21:15:00,
2012-11-16 16:16:00,65.6,58.9,30.11,NE,44,2.0,5.0,79,0.00,,---,0.00,83.00,VWS V14.01,2012-11-16 21:16:00,
2012-11-16 16:17:00,65.0,58.0,30.11,ENE,65,0.0,8.0,78,0.00,,---,0.00,69.00,VWS V14.01,2012-11-16 21:17:00,
2012-11-16 16:18:00,65.0,58.3,30.11,NE,36,1.0,8.0,79,0.00,,---,0.00,67.00,VWS V14.01,2012-11-16 21:18:00,
2012-11-16 16:19:00,64.9,57.9,30.11,NE,36,0.0,8.0,78,0.00,,---,0.00,62.00,VWS V14.01,2012-11-16 21:19:00,
2012-11-16 16:20:00,64.9,58.2,30.11,ENE,62,5.0,8.0,79,0.00,,---,0.00,65.00,VWS V14.01,2012-11-16 21:20:00,
2012-11-16 16:21:00,65.4,58.0,30.11,ENE,69,5.0,8.0,77,0.00,,---,0.00,69.00,VWS V14.01,2012-11-16 21:21:00,
2012-11-16 16:22:00,64.8,57.8,30.11,ESE,102,3.0,8.0,78,0.00,,---,0.00,72.00,VWS V14.01,2012-11-16 21:22:00,
2012-11-16 16:23:00,64.8,57.8,30.11,East,101,0.0,8.0,78,0.00,,---,0.00,72.00,VWS V14.01,2012-11-16 21:23:00,
2012-11-16 16:24:00,64.7,57.7,30.11,ENE,66,1.0,8.0,78,0.00,,---,0.00,72.00,VWS V14.01,2012-11-16 21:24:00,
2012-11-16 16:25:00,64.7,58.0,30.11,ESE,110,1.0,8.0,79,0.00,,---,0.00,67.00,VWS V14.01,2012-11-16 21:25:00,
2012-11-16 16:26:00,65.0,58.0,30.11,ENE,64,0.0,8.0,78,0.00,,---,0.00,69.00,VWS V14.01,2012-11-16 21:26:00,
2012-11-16 16:27:00,64.7,57.7,30.11,NE,43,3.0,8.0,78,0.00,,---,0.00,60.00,VWS V14.01,2012-11-16 21:27:00,
2012-11-16 16:28:00,64.7,58.0,30.11,NE,43,0.0,8.0,79,0.00,,---,0.00,60.00,VWS V14.01,2012-11-16 21:28:00,
2012-11-16 16:29:00,64.8,58.1,30.11,NE,56,0.0,8.0,79,0.00,,---,0.00,58.00,VWS V14.01,2012-11-16 21:29:00,
2012-11-16 16:30:00,64.8,58.1,30.11,NE,52,3.0,8.0,79,0.00,,---,0.00,58.00,VWS V14.01,2012-11-16 21:30:00,
2012-11-16 16:31:00,64.8,58.1,30.11,East,79,4.0,8.0,79,0.00,,---,0.00,72.00,VWS V14.01,2012-11-16 21:31:00,
2012-11-16 16:32:00,64.8,58.1,30.11,ENE,59,3.0,8.0,79,0.00,,---,0.00,54.00,VWS V14.01,2012-11-16 21:32:00,
2012-11-16 16:33:00,64.8,58.5,30.11,ENE,58,5.0,8.0,80,0.00,,---,0.00,54.00,VWS V14.01,2012-11-16 21:33:00,
2012-11-16 16:34:00,64.9,58.2,30.11,NE,54,2.0,9.0,79,0.00,,---,0.00,40.00,VWS V14.01,2012-11-16 21:34:00,
2012-11-16 16:35:00,64.8,58.1,30.11,NNE,27,4.0,9.0,79,0.00,,---,0.00,37.00,VWS V14.01,2012-11-16 21:35:00,
2012-11-16 16:36:00,64.7,57.7,30.11,NNE,25,2.0,8.0,78,0.00,,---,0.00,60.00,VWS V14.01,2012-11-16 21:36:00,
2012-11-16 16:37:00,64.8,58.1,30.11,ENE,57,1.0,9.0,79,0.00,,---,0.00,33.00,VWS V14.01,2012-11-16 21:37:00,
2012-11-16 16:38:00,64.8,58.1,30.11,ENE,63,2.0,9.0,79,0.00,,---,0.00,33.00,VWS V14.01,2012-11-16 21:38:00,
2012-11-16 16:39:00,64.8,58.1,30.11,North,9,0.0,9.0,79,0.00,,---,0.00,32.00,VWS V14.01,2012-11-16 21:39:00,
2012-11-16 16:40:00,64.7,58.0,30.11,NE,41,3.0,9.0,79,0.00,,---,0.00,33.00,VWS V14.01,2012-11-16 21:40:00,
2012-11-16 16:41:00,64.8,58.1,30.11,ENE,59,3.0,8.0,79,0.00,,---,0.00,54.00,VWS V14.01,2012-11-16 21:41:00,
2012-11-16 16:42:00,64.7,58.0,30.11,ENE,61,1.0,9.0,79,0.00,,---,0.00,39.00,VWS V14.01,2012-11-16 21:42:00,
2012-11-16 16:43:00,64.6,58.0,30.11,ENE,66,4.0,9.0,79,0.00,,---,0.00,40.00,VWS V14.01,2012-11-16 21:43:00,
2012-11-16 16:44:00,64.6,58.0,30.11,NNE,33,2.0,9.0,79,0.00,,---,0.00,40.00,VWS V14.01,2012-11-16 21:44:00,
2012-11-16 16:45:00,64.6,58.0,30.11,ENE,66,2.0,9.0,79,0.00,,---,0.00,37.00,VWS V14.01,2012-11-16 21:45:00,
2012-11-16 16:46:00,64.8,58.1,30.11,ENE,62,5.0,9.0,79,0.00,,---,0.00,33.00,VWS V14.01,2012-11-16 21:46:00,
2012-11-16 16:47:00,64.6,58.0,30.11,ENE,62,3.0,9.0,79,0.00,,---,0.00,33.00,VWS V14.01,2012-11-16 21:47:00,
2012-11-16 16:48:00,64.6,58.0,30.11,ENE,58,4.0,9.0,79,0.00,,---,0.00,30.00,VWS V14.01,2012-11-16 21:48:00,
2012-11-16 16:49:00,64.6,57.6,30.11,ENE,77,4.0,9.0,78,0.00,,---,0.00,30.00,VWS V14.01,2012-11-16 21:49:00,
2012-11-16 16:50:00,64.5,57.5,30.11,NNE,28,2.0,9.0,78,0.00,,---,0.00,25.00,VWS V14.01,2012-11-16 21:50:00,
2012-11-16 16:51:00,64.7,58.0,30.11,ENE,60,2.0,9.0,79,0.00,,---,0.00,39.00,VWS V14.01,2012-11-16 21:51:00,
2012-11-16 16:52:00,64.5,57.5,30.11,NNE,25,2.0,9.0,78,0.00,,---,0.00,21.00,VWS V14.01,2012-11-16 21:52:00,
2012-11-16 16:53:00,64.5,57.8,30.11,ENE,62,3.0,9.0,79,0.00,,---,0.00,21.00,VWS V14.01,2012-11-16 21:53:00,
2012-11-16 16:54:00,64.5,57.8,30.11,ENE,77,3.0,9.0,79,0.00,,---,0.00,19.00,VWS V14.01,2012-11-16 21:54:00,
2012-11-16 16:55:00,64.5,57.8,30.11,ENE,77,0.0,9.0,79,0.00,,---,0.00,19.00,VWS V14.01,2012-11-16 21:55:00,
2012-11-16 16:56:00,64.6,58.0,30.11,ENE,62,3.0,9.0,79,0.00,,---,0.00,33.00,VWS V14.01,2012-11-16 21:56:00,
2012-11-16 16:57:00,64.4,58.1,30.11,ENE,58,3.0,9.0,80,0.00,,---,0.00,18.00,VWS V14.01,2012-11-16 21:57:00,
2012-11-16 16:58:00,64.4,58.1,30.11,NE,37,0.0,9.0,80,0.00,,---,0.00,16.00,VWS V14.01,2012-11-16 21:58:00,
2012-11-16 16:59:00,64.3,58.0,30.11,ENE,68,1.0,9.0,80,0.00,,---,0.00,14.00,VWS V14.01,2012-11-16 21:59:00,
2012-11-16 17:00:00,64.3,58.0,30.11,ENE,68,4.0,4.0,80,0.00,,---,0.00,14.00,VWS V14.01,2012-11-16 22:00:00,
2012-11-16 17:01:00,64.3,58.0,30.11,ESE,106,2.0,4.0,80,0.00,,---,0.00,14.00,VWS V14.01,2012-11-16 22:01:00,
2012-11-16 17:02:00,64.5,57.5,30.11,NE,51,3.0,9.0,78,0.00,,---,0.00,23.00,VWS V14.01,2012-11-16 22:02:00,
2012-11-16 17:03:00,64.3,58.0,30.11,ENE,66,0.0,4.0,80,0.00,,---,0.00,14.00,VWS V14.01,2012-11-16 22:03:00,
2012-11-16 17:04:00,64.3,58.0,30.11,NE,45,0.0,4.0,80,0.00,,---,0.00,14.00,VWS V14.01,2012-11-16 22:04:00,
2012-11-16 17:05:00,64.3,58.0,30.11,NE,45,0.0,4.0,80,0.00,,---,0.00,14.00,VWS V14.01,2012-11-16 22:05:00,
2012-11-16 17:06:00,64.3,58.0,30.11,NE,45,0.0,4.0,80,0.00,,---,0.00,14.00,VWS V14.01,2012-11-16 22:06:00,
2012-11-16 17:07:00,64.4,58.1,30.11,NE,37,0.0,9.0,80,0.00,,---,0.00,16.00,VWS V14.01,2012-11-16 22:07:00,
2012-11-16 17:08:00,64.3,58.3,30.11,ENE,72,0.0,4.0,81,0.00,,---,0.00,12.00,VWS V14.01,2012-11-16 22:08:00,
2012-11-16 17:09:00,64.3,58.3,30.11,ENE,72,0.0,4.0,81,0.00,,---,0.00,12.00,VWS V14.01,2012-11-16 22:09:00,
2012-11-16 17:10:00,64.3,58.3,30.11,ENE,72,0.0,4.0,81,0.00,,---,0.00,11.00,VWS V14.01,2012-11-16 22:10:00,
2012-11-16 17:11:00,64.3,58.3,30.11,ENE,72,1.0,4.0,81,0.00,,---,0.00,11.00,VWS V14.01,2012-11-16 22:11:00,
2012-11-16 17:12:00,64.3,58.3,30.11,ENE,72,0.0,4.0,81,0.00,,---,0.00,11.00,VWS V14.01,2012-11-16 22:12:00,
2012-11-16 17:13:00,64.3,58.0,30.11,NE,45,2.0,4.0,80,0.00,,---,0.00,14.00,VWS V14.01,2012-11-16 22:13:00,
2012-11-16 17:14:00,64.2,58.3,30.11,East,81,2.0,4.0,81,0.00,,---,0.00,9.00,VWS V14.01,2012-11-16 22:14:00,
2012-11-16 17:15:00,64.2,58.3,30.11,ENE,58,0.0,4.0,81,0.00,,---,0.00,7.00,VWS V14.01,2012-11-16 22:15:00,
2012-11-16 17:16:00,64.2,58.3,30.11,ENE,58,0.0,4.0,81,0.00,,---,0.00,7.00,VWS V14.01,2012-11-16 22:16:00,
2012-11-16 17:17:00,64.2,58.3,30.11,ENE,58,0.0,4.0,81,0.00,,---,0.00,5.00,VWS V14.01,2012-11-16 22:17:00,
2012-11-16 17:18:00,64.3,58.3,30.11,ENE,72,0.0,4.0,81,0.00,,---,0.00,12.00,VWS V14.01,2012-11-16 22:18:00,
2012-11-16 17:19:00,64.1,58.2,30.11,ENE,60,1.0,4.0,81,0.00,,---,0.00,0.00,VWS V14.01,2012-11-16 22:19:00,
2012-11-16 17:20:00,64.1,57.8,30.11,ENE,64,2.0,4.0,80,0.00,,---,0.00,0.00,VWS V14.01,2012-11-16 22:20:00,
2012-11-16 17:21:00,64.2,57.9,30.11,ENE,73,0.0,4.0,80,0.00,,---,0.00,0.00,VWS V14.01,2012-11-16 22:21:00,
2012-11-16 17:22:00,64.2,58.3,30.11,NNE,12,0.0,4.0,81,0.00,,---,0.00,0.00,VWS V14.01,2012-11-16 22:22:00,
2012-11-16 17:23:00,64.2,58.3,30.11,ENE,73,1.0,4.0,81,0.00,,---,0.00,9.00,VWS V14.01,2012-11-16 22:23:00,
2012-11-16 17:24:00,64.2,58.3,30.11,NNE,12,0.0,4.0,81,0.00,,---,0.00,0.00,VWS V14.01,2012-11-16 22:24:00,
2012-11-16 17:25:00,64.2,58.6,30.11,NNE,12,0.0,4.0,82,0.00,,---,0.00,0.00,VWS V14.01,2012-11-16 22:25:00,
2012-11-16 17:26:00,64.2,58.9,30.11,NNE,12,0.0,4.0,83,0.00,,---,0.00,0.00,VWS V14.01,2012-11-16 22:26:00,
2012-11-16 17:27:00,64.2,58.9,30.11,NNE,12,0.0,4.0,83,0.00,,---,0.00,0.00,VWS V14.01,2012-11-16 22:27:00,
2012-11-16 17:28:00,64.1,58.2,30.11,ENE,60,2.0,4.0,81,0.00,,---,0.00,0.00,VWS V14.01,2012-11-16 22:28:00,
2012-11-16 17:29:00,64.2,58.9,30.11,NNE,19,1.0,4.0,83,0.00,,---,0.00,0.00,VWS V14.01,2012-11-16 22:29:00,
2012-11-16 17:30:00,64.2,58.6,30.11,ENE,78,2.0,4.0,82,0.00,,---,0.00,0.00,VWS V14.01,2012-11-16 22:30:00,
2012-11-16 17:31:00,64.2,58.6,30.11,NNE,31,0.0,4.0,82,0.00,,---,0.00,0.00,VWS V14.01,2012-11-16 22:31:00,
2012-11-16 17:32:00,64.2,58.6,30.11,East,80,0.0,4.0,82,0.00,,---,0.00,0.00,VWS V14.01,2012-11-16 22:32:00,
2012-11-16 17:33:00,64.2,58.3,30.11,NNE,12,0.0,4.0,81,0.00,,---,0.00,0.00,VWS V14.01,2012-11-16 22:33:00,
2012-11-16 17:34:00,64.2,58.6,30.11,East,80,0.0,4.0,82,0.00,,---,0.00,0.00,VWS V14.01,2012-11-16 22:34:00,
2012-11-16 17:35:00,64.2,58.6,30.11,East,92,0.0,4.0,82,0.00,,---,0.00,0.00,VWS V14.01,2012-11-16 22:35:00,
2012-11-16 17:36:00,64.1,58.5,30.11,ESE,108,0.0,4.0,82,0.00,,---,0.00,0.00,VWS V14.01,2012-11-16 22:36:00,
2012-11-16 17:37:00,64.1,58.5,30.11,ESE,108,0.0,4.0,82,0.00,,---,0.00,0.00,VWS V14.01,2012-11-16 22:37:00,
2012-11-16 17:38:00,64.3,59.0,30.11,NNE,21,0.0,4.0,83,0.00,,---,0.00,0.00,VWS V14.01,2012-11-16 22:38:00,
2012-11-16 17:39:00,64.1,58.5,30.11,ESE,108,0.0,4.0,82,0.00,,---,0.00,0.00,VWS V14.01,2012-11-16 22:39:00,
2012-11-16 17:40:00,64.0,58.4,30.11,North,10,3.0,4.0,82,0.00,,---,0.00,0.00,VWS V14.01,2012-11-16 22:40:00,
2012-11-16 17:41:00,64.1,58.5,30.11,North,10,0.0,4.0,82,0.00,,---,0.00,0.00,VWS V14.01,2012-11-16 22:41:00,
2012-11-16 17:42:00,64.1,58.5,30.11,North,10,0.0,4.0,82,0.00,,---,0.00,0.00,VWS V14.01,2012-11-16 22:42:00,
2012-11-16 17:43:00,64.2,58.6,30.11,East,80,0.0,4.0,82,0.00,,---,0.00,0.00,VWS V14.01,2012-11-16 22:43:00,
2012-11-16 17:44:00,64.0,58.4,30.11,North,10,0.0,4.0,82,0.00,,---,0.00,0.00,VWS V14.01,2012-11-16 22:44:00,
2012-11-16 17:45:00,64.1,58.5,30.11,North,10,1.0,4.0,82,0.00,,---,0.00,0.00,VWS V14.01,2012-11-16 22:45:00,
2012-11-16 17:46:00,64.0,58.4,30.11,North,10,0.0,4.0,82,0.00,,---,0.00,0.00,VWS V14.01,2012-11-16 22:46:00,
2012-11-16 17:47:00,64.0,58.4,30.11,North,11,0.0,4.0,82,0.00,,---,0.00,0.00,VWS V14.01,2012-11-16 22:47:00,
2012-11-16 17:48:00,64.0,58.7,30.11,North,11,0.0,4.0,83,0.00,,---,0.00,0.00,VWS V14.01,2012-11-16 22:48:00,
2012-11-16 17:49:00,64.0,58.4,30.11,East,96,0.0,4.0,82,0.00,,---,0.00,0.00,VWS V14.01,2012-11-16 22:49:00,
2012-11-16 17:50:00,64.0,58.4,30.12,North,11,0.0,4.0,82,0.00,,---,0.00,0.00,VWS V14.01,2012-11-16 22:50:00,
2012-11-16 17:51:00,64.0,58.4,30.12,ENE,75,3.0,4.0,82,0.00,,---,0.00,0.00,VWS V14.01,2012-11-16 22:51:00,
2012-11-16 17:52:00,64.0,58.4,30.12,NNE,21,0.0,4.0,82,0.00,,---,0.00,0.00,VWS V14.01,2012-11-16 22:52:00,
2012-11-16 17:53:00,64.0,58.4,30.12,NNE,21,0.0,4.0,82,0.00,,---,0.00,0.00,VWS V14.01,2012-11-16 22:53:00,
2012-11-16 17:54:00,64.0,58.4,30.11,North,10,0.0,4.0,82,0.00,,---,0.00,0.00,VWS V14.01,2012-11-16 22:54:00,
2012-11-16 17:55:00,64.0,58.7,30.12,NNE,21,0.0,4.0,83,0.00,,---,0.00,0.00,VWS V14.01,2012-11-16 22:55:00,
2012-11-16 17:56:00,64.0,58.7,30.12,NNE,21,0.0,4.0,83,0.00,,---,0.00,0.00,VWS V14.01,2012-11-16 22:56:00,
2012-11-16 17:57:00,64.0,58.7,30.12,NNE,21,0.0,4.0,83,0.00,,---,0.00,0.00,VWS V14.01,2012-11-16 22:57:00,
2012-11-16 17:58:00,64.0,58.7,30.12,NNE,21,0.0,4.0,83,0.00,,---,0.00,0.00,VWS V14.01,2012-11-16 22:58:00,
2012-11-16 17:59:00,64.0,58.4,30.12,North,11,0.0,4.0,82,0.00,,---,0.00,0.00,VWS V14.01,2012-11-16 22:59:00,
2012-11-16 18:00:00,64.0,58.7,30.11,ENE,65,0.0,4.0,83,0.00,,---,0.00,0.00,VWS V14.01,2012-11-16 23:00:00,
2012-11-16 18:01:00,64.0,58.7,30.11,ENE,65,0.0,2.0,83,0.00,,---,0.00,0.00,VWS V14.01,2012-11-16 23:01:00,
2012-11-16 18:02:00,63.9,58.3,30.12,NE,53,3.0,3.0,82,0.00,,---,0.00,0.00,VWS V14.01,2012-11-16 23:02:00,
2012-11-16 18:03:00,63.9,58.3,30.12,North,351,1.0,5.0,82,0.00,,---,0.00,0.00,VWS V14.01,2012-11-16 23:03:00,
2012-11-16 18:04:00,64.0,58.7,30.12,NNE,21,0.0,4.0,83,0.00,,---,0.00,0.00,VWS V14.01,2012-11-16 23:04:00,
2012-11-16 18:05:00,63.8,57.9,30.12,East,81,0.0,5.0,81,0.00,,---,0.00,0.00,VWS V14.01,2012-11-16 23:05:00,
2012-11-16 18:06:00,63.8,57.9,30.12,ENE,61,4.0,5.0,81,0.00,,---,0.00,0.00,VWS V14.01,2012-11-16 23:06:00,
2012-11-16 18:07:00,63.8,57.9,30.12,ENE,68,0.0,5.0,81,0.00,,---,0.00,0.00,VWS V14.01,2012-11-16 23:07:00,
2012-11-16 18:08:00,63.8,57.9,30.12,ENE,68,0.0,5.0,81,0.00,,---,0.00,0.00,VWS V14.01,2012-11-16 23:08:00,
2012-11-16 18:09:00,63.8,57.9,30.11,ENE,68,0.0,5.0,81,0.00,,---,0.00,0.00,VWS V14.01,2012-11-16 23:09:00,
2012-11-16 18:10:00,64.0,58.7,30.11,ENE,65,0.0,2.0,83,0.00,,---,0.00,0.00,VWS V14.01,2012-11-16 23:10:00,
2012-11-16 18:11:00,63.8,58.2,30.11,ENE,68,0.0,5.0,82,0.00,,---,0.00,0.00,VWS V14.01,2012-11-16 23:11:00,
2012-11-16 18:12:00,63.8,58.2,30.11,ENE,68,0.0,5.0,82,0.00,,---,0.00,0.00,VWS V14.01,2012-11-16 23:12:00,
2012-11-16 18:13:00,63.8,58.2,30.11,ENE,68,0.0,5.0,82,0.00,,---,0.00,0.00,VWS V14.01,2012-11-16 23:13:00,
2012-11-16 18:14:00,63.8,58.2,30.11,ENE,66,2.0,5.0,82,0.00,,---,0.00,0.00,VWS V14.01,2012-11-16 23:14:00,
2012-11-16 18:15:00,63.8,57.9,30.12,ENE,72,5.0,5.0,81,0.00,,---,0.00,0.00,VWS V14.01,2012-11-16 23:15:00,
2012-11-16 18:16:00,63.8,57.9,30.11,NNE,26,1.0,5.0,81,0.00,,---,0.00,0.00,VWS V14.01,2012-11-16 23:16:00,
2012-11-16 18:17:00,63.8,57.9,30.12,ESE,102,1.0,5.0,81,0.00,,---,0.00,0.00,VWS V14.01,2012-11-16 23:17:00,
2012-11-16 18:18:00,63.7,58.1,30.12,ESE,102,0.0,5.0,82,0.00,,---,0.00,0.00,VWS V14.01,2012-11-16 23:18:00,
2012-11-16 18:19:00,63.7,58.1,30.12,NNE,23,1.0,5.0,82,0.00,,---,0.00,0.00,VWS V14.01,2012-11-16 23:19:00,
2012-11-16 18:20:00,63.8,58.2,30.12,ENE,68,0.0,5.0,82,0.00,,---,0.00,0.00,VWS V14.01,2012-11-16 23:20:00,
2012-11-16 18:21:00,63.7,58.1,30.12,ENE,58,2.0,5.0,82,0.00,,---,0.00,0.00,VWS V14.01,2012-11-16 23:21:00,
2012-11-16 18:22:00,63.7,57.8,30.12,ENE,58,1.0,5.0,81,0.00,,---,0.00,0.00,VWS V14.01,2012-11-16 23:22:00,
2012-11-16 18:23:00,63.7,57.8,30.12,North,2,0.0,5.0,81,0.00,,---,0.00,0.00,VWS V14.01,2012-11-16 23:23:00,
2012-11-16 18:24:00,63.6,58.0,30.12,NE,56,2.0,5.0,82,0.00,,---,0.00,0.00,VWS V14.01,2012-11-16 23:24:00,
2012-11-16 18:25:00,63.8,57.9,30.11,NNE,26,1.0,5.0,81,0.00,,---,0.00,0.00,VWS V14.01,2012-11-16 23:25:00,
2012-11-16 18:26:00,63.6,58.0,30.12,East,89,1.0,5.0,82,0.00,,---,0.00,0.00,VWS V14.01,2012-11-16 23:26:00,
2012-11-16 18:27:00,63.6,58.0,30.12,ENE,74,2.0,5.0,82,0.00,,---,0.00,0.00,VWS V14.01,2012-11-16 23:27:00,
2012-11-16 18:28:00,63.7,58.1,30.12,ENE,74,0.0,5.0,82,0.00,,---,0.00,0.00,VWS V14.01,2012-11-16 23:28:00,
2012-11-16 18:29:00,63.7,58.5,30.12,ENE,74,0.0,5.0,83,0.00,,---,0.00,0.00,VWS V14.01,2012-11-16 23:29:00,
2012-11-16 18:30:00,63.7,58.1,30.12,NE,50,3.0,5.0,82,0.00,,---,0.00,0.00,VWS V14.01,2012-11-16 23:30:00,
2012-11-16 18:31:00,63.7,58.5,30.12,ENE,74,0.0,5.0,83,0.00,,---,0.00,0.00,VWS V14.01,2012-11-16 23:31:00,
2012-11-16 18:32:00,63.7,58.5,30.12,ENE,74,0.0,5.0,83,0.00,,---,0.00,0.00,VWS V14.01,2012-11-16 23:32:00,
2012-11-16 18:33:00,63.7,58.5,30.12,ENE,74,0.0,5.0,83,0.00,,---,0.00,0.00,VWS V14.01,2012-11-16 23:33:00,
2012-11-16 18:34:00,63.8,58.5,30.13,ENE,74,0.0,5.0,83,0.00,,---,0.00,0.00,VWS V14.01,2012-11-16 23:34:00,
2012-11-16 18:35:00,63.6,58.0,30.12,East,96,0.0,5.0,82,0.00,,---,0.00,0.00,VWS V14.01,2012-11-16 23:35:00,
2012-11-16 18:36:00,63.8,58.5,30.13,ENE,74,0.0,5.0,83,0.00,,---,0.00,0.00,VWS V14.01,2012-11-16 23:36:00,
2012-11-16 18:37:00,63.8,58.9,30.13,ENE,74,0.0,5.0,84,0.00,,---,0.00,0.00,VWS V14.01,2012-11-16 23:37:00,
2012-11-16 18:38:00,63.8,58.5,30.13,ENE,74,0.0,5.0,83,0.00,,---,0.00,0.00,VWS V14.01,2012-11-16 23:38:00,
2012-11-16 18:39:00,63.8,58.5,30.13,ENE,74,0.0,5.0,83,0.00,,---,0.00,0.00,VWS V14.01,2012-11-16 23:39:00,
2012-11-16 18:40:00,63.7,58.5,30.12,ENE,74,0.0,5.0,83,0.00,,---,0.00,0.00,VWS V14.01,2012-11-16 23:40:00,
2012-11-16 18:41:00,63.8,58.5,30.13,ENE,74,0.0,5.0,83,0.00,,---,0.00,0.00,VWS V14.01,2012-11-16 23:41:00,
2012-11-16 18:42:00,63.8,58.5,30.13,ENE,74,0.0,5.0,83,0.00,,---,0.00,0.00,VWS V14.01,2012-11-16 23:42:00,
2012-11-16 18:43:00,63.8,58.5,30.13,NNE,18,0.0,5.0,83,0.00,,---,0.00,0.00,VWS V14.01,2012-11-16 23:43:00,
2012-11-16 18:44:00,63.8,58.5,30.13,NNE,18,0.0,5.0,83,0.00,,---,0.00,0.00,VWS V14.01,2012-11-16 23:44:00,
2012-11-16 18:45:00,63.8,58.5,30.13,NNE,18,0.0,5.0,83,0.00,,---,0.00,0.00,VWS V14.01,2012-11-16 23:45:00,
2012-11-16 18:46:00,63.8,58.9,30.13,ENE,74,0.0,5.0,84,0.00,,---,0.00,0.00,VWS V14.01,2012-11-16 23:46:00,
2012-11-16 18:47:00,63.7,58.5,30.13,NW,311,0.0,5.0,83,0.00,,---,0.00,0.00,VWS V14.01,2012-11-16 23:47:00,
2012-11-16 18:48:00,63.7,58.5,30.13,NW,311,0.0,5.0,83,0.00,,---,0.00,0.00,VWS V14.01,2012-11-16 23:48:00,
2012-11-16 18:49:00,63.7,58.5,30.13,NW,311,0.0,5.0,83,0.00,,---,0.00,0.00,VWS V14.01,2012-11-16 23:49:00,
2012-11-16 18:50:00,63.7,58.5,30.13,NW,311,0.0,5.0,83,0.00,,---,0.00,0.00,VWS V14.01,2012-11-16 23:50:00,
2012-11-16 18:51:00,63.8,58.5,30.13,ENE,74,0.0,5.0,83,0.00,,---,0.00,0.00,VWS V14.01,2012-11-16 23:51:00,
2012-11-16 18:52:00,63.6,58.3,30.13,NW,311,0.0,5.0,83,0.00,,---,0.00,0.00,VWS V14.01,2012-11-16 23:52:00,
2012-11-16 18:53:00,63.6,58.3,30.13,NW,311,0.0,5.0,83,0.00,,---,0.00,0.00,VWS V14.01,2012-11-16 23:53:00,
2012-11-16 18:54:00,63.6,58.7,30.13,NNE,23,1.0,5.0,84,0.00,,---,0.00,0.00,VWS V14.01,2012-11-16 23:54:00,
2012-11-16 18:55:00,63.6,58.3,30.13,ENE,60,3.0,5.0,83,0.00,,---,0.00,0.00,VWS V14.01,2012-11-16 23:55:00,
2012-11-16 18:56:00,63.7,58.5,30.13,NW,311,0.0,5.0,83,0.00,,---,0.00,0.00,VWS V14.01,2012-11-16 23:56:00,
2012-11-16 18:57:00,63.6,58.3,30.13,NNE,29,1.0,5.0,83,0.00,,---,0.00,0.00,VWS V14.01,2012-11-16 23:57:00,
2012-11-16 18:58:00,63.6,58.3,30.13,North,9,0.0,5.0,83,0.00,,---,0.00,0.00,VWS V14.01,2012-11-16 23:58:00,
2012-11-16 18:59:00,63.6,58.0,30.13,North,9,0.0,5.0,82,0.00,,---,0.00,0.00,VWS V14.01,2012-11-16 23:59:00,
2012-11-16 19:00:00,63.6,58.3,30.13,North,9,0.0,1.0,83,0.00,,---,0.00,0.00,VWS V14.01,2012-11-17 00:00:00,
2012-11-16 19:01:00,63.6,58.3,30.13,NW,311,0.0,5.0,83,0.00,,---,0.00,0.00,VWS V14.01,2012-11-17 00:01:00,
2012-11-16 19:02:00,63.5,58.2,30.13,North,9,0.0,1.0,83,0.00,,---,0.00,0.00,VWS V14.01,2012-11-17 00:02:00,
2012-11-16 19:03:00,63.5,58.2,30.13,North,9,0.0,1.0,83,0.00,,---,0.00,0.00,VWS V14.01,2012-11-17 00:03:00,
2012-11-16 19:04:00,63.5,58.2,30.13,NW,314,0.0,1.0,83,0.00,,---,0.00,0.00,VWS V14.01,2012-11-17 00:04:00,
2012-11-16 19:05:00,63.4,58.2,30.13,NW,314,0.0,1.0,83,0.00,,---,0.00,0.00,VWS V14.01,2012-11-17 00:05:00,
2012-11-16 19:06:00,63.6,58.3,30.13,NNE,29,1.0,5.0,83,0.00,,---,0.00,0.00,VWS V14.01,2012-11-17 00:06:00,
2012-11-16 19:07:00,63.4,58.2,30.13,NW,314,0.0,1.0,83,0.00,,---,0.00,0.00,VWS V14.01,2012-11-17 00:07:00,
2012-11-16 19:08:00,63.3,58.1,30.13,NW,314,0.0,1.0,83,0.00,,---,0.00,0.00,VWS V14.01,2012-11-17 00:08:00,
2012-11-16 19:09:00,63.3,58.1,30.13,NW,314,0.0,1.0,83,0.00,,---,0.00,0.00,VWS V14.01,2012-11-17 00:09:00,
2012-11-16 19:10:00,63.3,58.4,30.13,NW,314,0.0,1.0,84,0.00,,---,0.00,0.00,VWS V14.01,2012-11-17 00:10:00,
2012-11-16 19:11:00,63.5,58.2,30.13,North,9,0.0,1.0,83,0.00,,---,0.00,0.00,VWS V14.01,2012-11-17 00:11:00,
2012-11-16 19:12:00,63.2,58.0,30.14,WNW,301,1.0,3.0,83,0.00,,---,0.00,0.00,VWS V14.01,2012-11-17 00:12:00,
2012-11-16 19:13:00,63.2,58.0,30.14,NW,305,1.0,3.0,83,0.00,,---,0.00,0.00,VWS V14.01,2012-11-17 00:13:00,
2012-11-16 19:14:00,63.2,58.0,30.14,North,351,1.0,3.0,83,0.00,,---,0.00,0.00,VWS V14.01,2012-11-17 00:14:00,
2012-11-16 19:15:00,63.1,57.9,30.14,NNW,343,0.0,3.0,83,0.00,,---,0.00,0.00,VWS V14.01,2012-11-17 00:15:00,
2012-11-16 19:16:00,63.1,57.9,30.14,NNW,343,0.0,3.0,83,0.00,,---,0.00,0.00,VWS V14.01,2012-11-17 00:16:00,
2012-11-16 19:17:00,63.3,58.1,30.13,NW,314,0.0,1.0,83,0.00,,---,0.00,0.00,VWS V14.01,2012-11-17 00:17:00,
2012-11-16 19:18:00,63.0,57.8,30.14,NNW,343,0.0,3.0,83,0.00,,---,0.00,0.00,VWS V14.01,2012-11-17 00:18:00,
2012-11-16 19:19:00,63.0,57.8,30.14,NNW,343,0.0,3.0,83,0.00,,---,0.00,0.00,VWS V14.01,2012-11-17 00:19:00,
2012-11-16 19:20:00,62.9,57.7,30.14,NNW,343,0.0,3.0,83,0.00,,---,0.00,0.00,VWS V14.01,2012-11-17 00:20:00,
2012-11-16 19:21:00,62.9,57.7,30.14,NNW,343,0.0,3.0,83,0.00,,---,0.00,0.00,VWS V14.01,2012-11-17 00:21:00,
2012-11-16 19:22:00,63.2,58.0,30.14,NW,305,1.0,3.0,83,0.00,,---,0.00,0.00,VWS V14.01,2012-11-17 00:22:00,
2012-11-16 19:23:00,62.9,58.0,30.14,NNW,343,1.0,3.0,84,0.00,,---,0.00,0.00,VWS V14.01,2012-11-17 00:23:00,
2012-11-16 19:24:00,62.9,57.7,30.14,NNW,342,0.0,3.0,83,0.00,,---,0.00,0.00,VWS V14.01,2012-11-17 00:24:00,
2012-11-16 19:25:00,62.9,57.7,30.14,NNW,342,1.0,3.0,83,0.00,,---,0.00,0.00,VWS V14.01,2012-11-17 00:25:00,
2012-11-16 19:26:00,62.9,57.7,30.14,NNW,342,0.0,3.0,83,0.00,,---,0.00,0.00,VWS V14.01,2012-11-17 00:26:00,
2012-11-16 19:27:00,63.0,57.8,30.14,NNW,343,0.0,3.0,83,0.00,,---,0.00,0.00,VWS V14.01,2012-11-17 00:27:00,
2012-11-16 19:28:00,62.8,57.6,30.14,NNW,342,0.0,3.0,83,0.00,,---,0.00,0.00,VWS V14.01,2012-11-17 00:28:00,
2012-11-16 19:29:00,62.8,57.6,30.14,NNW,342,0.0,3.0,83,0.00,,---,0.00,0.00,VWS V14.01,2012-11-17 00:29:00,
2012-11-16 19:30:00,62.8,57.9,30.14,NNW,343,0.0,3.0,84,0.00,,---,0.00,0.00,VWS V14.01,2012-11-17 00:30:00,
2012-11-16 19:31:00,62.8,57.9,30.14,NNW,343,0.0,3.0,84,0.00,,---,0.00,0.00,VWS V14.01,2012-11-17 00:31:00,
2012-11-16 19:32:00,62.9,58.0,30.14,NNW,343,1.0,3.0,84,0.00,,---,0.00,0.00,VWS V14.01,2012-11-17 00:32:00,
2012-11-16 19:33:00,62.8,57.9,30.14,NNW,343,0.0,3.0,84,0.00,,---,0.00,0.00,VWS V14.01,2012-11-17 00:33:00,
2012-11-16 19:34:00,62.8,57.9,30.14,NNE,14,0.0,3.0,84,0.00,,---,0.00,0.00,VWS V14.01,2012-11-17 00:34:00,
2012-11-16 19:35:00,62.7,57.8,30.14,NNE,14,0.0,3.0,84,0.00,,---,0.00,0.00,VWS V14.01,2012-11-17 00:35:00,
2012-11-16 19:36:00,62.7,57.5,30.14,NNE,14,0.0,3.0,83,0.00,,---,0.00,0.00,VWS V14.01,2012-11-17 00:36:00,
2012-11-16 19:37:00,62.8,57.6,30.14,NNW,342,0.0,3.0,83,0.00,,---,0.00,0.00,VWS V14.01,2012-11-17 00:37:00,
2012-11-16 19:38:00,62.6,57.7,30.14,North,359,0.0,3.0,84,0.00,,---,0.00,0.00,VWS V14.01,2012-11-17 00:38:00,
2012-11-16 19:39:00,62.6,57.7,30.14,WSW,255,0.0,3.0,84,0.00,,---,0.00,0.00,VWS V14.01,2012-11-17 00:39:00,
2012-11-16 19:40:00,62.5,57.6,30.14,WSW,255,0.0,3.0,84,0.00,,---,0.00,0.00,VWS V14.01,2012-11-17 00:40:00,
2012-11-16 19:41:00,62.5,57.6,30.14,WNW,287,0.0,3.0,84,0.00,,---,0.00,0.00,VWS V14.01,2012-11-17 00:41:00,
2012-11-16 19:42:00,62.4,57.5,30.14,WNW,287,0.0,3.0,84,0.00,,---,0.00,0.00,VWS V14.01,2012-11-17 00:42:00,
2012-11-16 19:43:00,62.8,57.9,30.14,NNW,343,0.0,3.0,84,0.00,,---,0.00,0.00,VWS V14.01,2012-11-17 00:43:00,
2012-11-16 19:44:00,62.4,57.8,30.14,North,2,0.0,3.0,85,0.00,,---,0.00,0.00,VWS V14.01,2012-11-17 00:44:00,
2012-11-16 19:45:00,62.3,57.7,30.14,North,2,0.0,3.0,85,0.00,,---,0.00,0.00,VWS V14.01,2012-11-17 00:45:00,
2012-11-16 19:46:00,62.3,57.7,30.14,North,359,0.0,3.0,85,0.00,,---,0.00,0.00,VWS V14.01,2012-11-17 00:46:00,
2012-11-16 19:47:00,62.6,57.7,30.14,North,359,0.0,3.0,84,0.00,,---,0.00,0.00,VWS V14.01,2012-11-17 00:47:00,
2012-11-16 19:48:00,62.2,57.6,30.14,NW,326,0.0,3.0,85,0.00,,---,0.00,0.00,VWS V14.01,2012-11-17 00:48:00,
2012-11-16 19:49:00,62.2,57.3,30.14,North,353,0.0,3.0,84,0.00,,---,0.00,0.00,VWS V14.01,2012-11-17 00:49:00,
2012-11-16 19:50:00,62.2,57.3,30.14,North,353,0.0,3.0,84,0.00,,---,0.00,0.00,VWS V14.01,2012-11-17 00:50:00,
2012-11-16 19:51:00,62.1,57.2,30.14,North,353,0.0,3.0,84,0.00,,---,0.00,0.00,VWS V14.01,2012-11-17 00:51:00,
2012-11-16 19:52:00,62.2,57.6,30.14,North,353,1.0,3.0,85,0.00,,---,0.00,0.00,VWS V14.01,2012-11-17 00:52:00,
2012-11-16 19:53:00,62.4,57.8,30.14,North,2,0.0,3.0,85,0.00,,---,0.00,0.00,VWS V14.01,2012-11-17 00:53:00,
2012-11-16 19:54:00,62.1,57.2,30.14,NNW,343,0.0,3.0,84,0.00,,---,0.00,0.00,VWS V14.01,2012-11-17 00:54:00,
2012-11-16 19:55:00,62.2,57.6,30.14,NNW,343,0.0,3.0,85,0.00,,---,0.00,0.00,VWS V14.01,2012-11-17 00:55:00,
2012-11-16 19:56:00,62.1,57.5,30.14,NNW,343,0.0,3.0,85,0.00,,---,0.00,0.00,VWS V14.01,2012-11-17 00:56:00,
2012-11-16 19:57:00,62.1,57.5,30.14,North,351,2.0,3.0,85,0.00,,---,0.00,0.00,VWS V14.01,2012-11-17 00:57:00,
2012-11-16 19:58:00,62.2,57.3,30.14,North,353,0.0,3.0,84,0.00,,---,0.00,0.00,VWS V14.01,2012-11-17 00:58:00,
2012-11-16 19:59:00,62.0,57.5,30.14,North,351,0.0,3.0,85,0.00,,---,0.00,0.00,VWS V14.01,2012-11-17 00:59:00,
2012-11-16 20:00:00,62.0,57.5,30.14,North,351,0.0,0.0,85,0.00,,---,0.00,0.00,VWS V14.01,2012-11-17 01:00:00,
2012-11-16 20:01:00,62.0,57.5,30.14,North,351,0.0,0.0,85,0.00,,---,0.00,0.00,VWS V14.01,2012-11-17 01:01:00,
2012-11-16 20:02:00,62.0,57.5,30.14,WNW,303,0.0,1.0,85,0.00,,---,0.00,0.00,VWS V14.01,2012-11-17 01:02:00,
2012-11-16 20:03:00,62.1,57.2,30.14,NNW,343,0.0,3.0,84,0.00,,---,0.00,0.00,VWS V14.01,2012-11-17 01:03:00,
2012-11-16 20:04:00,62.0,57.5,30.14,NW,304,0.0,1.0,85,0.00,,---,0.00,0.00,VWS V14.01,2012-11-17 01:04:00,
2012-11-16 20:05:00,61.9,57.3,30.14,NW,304,0.0,1.0,85,0.00,,---,0.00,0.00,VWS V14.01,2012-11-17 01:05:00,
2012-11-16 20:06:00,61.8,57.2,30.14,NW,304,0.0,1.0,85,0.00,,---,0.00,0.00,VWS V14.01,2012-11-17 01:06:00,
2012-11-16 20:07:00,61.8,57.2,30.14,NW,304,0.0,1.0,85,0.00,,---,0.00,0.00,VWS V14.01,2012-11-17 01:07:00,
2012-11-16 20:08:00,62.0,57.5,30.14,North,351,0.0,3.0,85,0.00,,---,0.00,0.00,VWS V14.01,2012-11-17 01:08:00,
2012-11-16 20:09:00,61.7,57.2,30.14,NW,304,0.0,1.0,85,0.00,,---,0.00,0.00,VWS V14.01,2012-11-17 01:09:00,
2012-11-16 20:10:00,61.7,57.2,30.14,NW,304,0.0,1.0,85,0.00,,---,0.00,0.00,VWS V14.01,2012-11-17 01:10:00,
2012-11-16 20:11:00,61.7,57.2,30.14,NW,304,0.0,1.0,85,0.00,,---,0.00,0.00,VWS V14.01,2012-11-17 01:11:00,
2012-11-16 20:12:00,61.6,57.0,30.14,NW,304,0.0,1.0,85,0.00,,---,0.00,0.00,VWS V14.01,2012-11-17 01:12:00,
2012-11-16 20:13:00,62.0,57.5,30.14,NW,304,0.0,1.0,85,0.00,,---,0.00,0.00,VWS V14.01,2012-11-17 01:13:00,
2012-11-16 20:14:00,61.5,57.3,30.14,NW,304,0.0,1.0,86,0.00,,---,0.00,0.00,VWS V14.01,2012-11-17 01:14:00,
2012-11-16 20:15:00,61.5,57.3,30.14,NW,304,0.0,1.0,86,0.00,,---,0.00,0.00,VWS V14.01,2012-11-17 01:15:00,
2012-11-16 20:16:00,61.4,57.2,30.14,NNW,347,0.0,1.0,86,0.00,,---,0.00,0.00,VWS V14.01,2012-11-17 01:16:00,
2012-11-16 20:17:00,61.4,57.2,30.14,NNW,347,0.0,1.0,86,0.00,,---,0.00,0.00,VWS V14.01,2012-11-17 01:17:00,
2012-11-16 20:18:00,61.7,57.2,30.14,NW,304,0.0,1.0,85,0.00,,---,0.00,0.00,VWS V14.01,2012-11-17 01:18:00,
2012-11-16 20:19:00,61.3,57.1,30.14,NNW,347,0.0,1.0,86,0.00,,---,0.00,0.00,VWS V14.01,2012-11-17 01:19:00,
2012-11-16 20:20:00,61.3,57.1,30.14,NNW,347,1.0,1.0,86,0.00,,---,0.00,0.00,VWS V14.01,2012-11-17 01:20:00,
2012-11-16 20:21:00,61.3,57.1,30.14,NNW,347,0.0,1.0,86,0.00,,---,0.00,0.00,VWS V14.01,2012-11-17 01:21:00,
2012-11-16 20:22:00,61.3,57.1,30.14,NNW,347,0.0,1.0,86,0.00,,---,0.00,0.00,VWS V14.01,2012-11-17 01:22:00,
2012-11-16 20:23:00,61.5,57.3,30.14,NW,304,0.0,1.0,86,0.00,,---,0.00,0.00,VWS V14.01,2012-11-17 01:23:00,
2012-11-16 20:24:00,61.2,57.0,30.14,NE,48,2.0,2.0,86,0.00,,---,0.00,0.00,VWS V14.01,2012-11-17 01:24:00,
2012-11-16 20:25:00,61.1,56.9,30.14,NNE,15,0.0,2.0,86,0.00,,---,0.00,0.00,VWS V14.01,2012-11-17 01:25:00,
2012-11-16 20:26:00,61.1,56.9,30.14,NNE,15,0.0,2.0,86,0.00,,---,0.00,0.00,VWS V14.01,2012-11-17 01:26:00,
2012-11-16 20:27:00,61.1,56.9,30.14,NNE,15,0.0,2.0,86,0.00,,---,0.00,0.00,VWS V14.01,2012-11-17 01:27:00,
2012-11-16 20:28:00,61.4,57.2,30.14,NNW,347,0.0,1.0,86,0.00,,---,0.00,0.00,VWS V14.01,2012-11-17 01:28:00,
2012-11-16 20:29:00,61.1,56.9,30.14,NNE,15,0.0,2.0,86,0.00,,---,0.00,0.00,VWS V14.01,2012-11-17 01:29:00,
2012-11-16 20:30:00,61.1,56.9,30.14,NNE,15,0.0,2.0,86,0.00,,---,0.00,0.00,VWS V14.01,2012-11-17 01:30:00,
2012-11-16 20:31:00,61.1,56.9,30.14,NW,312,1.0,2.0,86,0.00,,---,0.00,0.00,VWS V14.01,2012-11-17 01:31:00,
2012-11-16 20:32:00,61.1,56.9,30.14,NW,314,0.0,2.0,86,0.00,,---,0.00,0.00,VWS V14.01,2012-11-17 01:32:00,
2012-11-16 20:33:00,61.2,57.0,30.14,ENE,61,1.0,1.0,86,0.00,,---,0.00,0.00,VWS V14.01,2012-11-17 01:33:00,
2012-11-16 20:34:00,61.1,56.9,30.14,NW,314,0.0,2.0,86,0.00,,---,0.00,0.00,VWS V14.01,2012-11-17 01:34:00,
2012-11-16 20:35:00,61.0,56.8,30.14,NW,314,0.0,2.0,86,0.00,,---,0.00,0.00,VWS V14.01,2012-11-17 01:35:00,
2012-11-16 20:36:00,61.0,56.8,30.14,NW,314,0.0,2.0,86,0.00,,---,0.00,0.00,VWS V14.01,2012-11-17 01:36:00,
2012-11-16 20:37:00,61.0,57.1,30.14,North,5,0.0,2.0,87,0.00,,---,0.00,0.00,VWS V14.01,2012-11-17 01:37:00,
2012-11-16 20:38:00,61.1,56.9,30.14,NNE,15,0.0,2.0,86,0.00,,---,0.00,0.00,VWS V14.01,2012-11-17 01:38:00,
2012-11-16 20:39:00,60.9,57.0,30.14,NNW,327,0.0,2.0,87,0.00,,---,0.00,0.00,VWS V14.01,2012-11-17 01:39:00,
2012-11-16 20:40:00,60.9,56.7,30.14,NNW,327,0.0,2.0,86,0.00,,---,0.00,0.00,VWS V14.01,2012-11-17 01:40:00,
2012-11-16 20:41:00,60.9,56.7,30.14,NNW,327,0.0,2.0,86,0.00,,---,0.00,0.00,VWS V14.01,2012-11-17 01:41:00,
2012-11-16 20:42:00,60.9,57.0,30.14,NNW,327,0.0,2.0,87,0.00,,---,0.00,0.00,VWS V14.01,2012-11-17 01:42:00,
2012-11-16 20:43:00,60.9,57.0,30.14,NNW,327,0.0,2.0,87,0.00,,---,0.00,0.00,VWS V14.01,2012-11-17 01:43:00,
2012-11-16 20:44:00,61.1,56.9,30.14,NW,314,0.0,2.0,86,0.00,,---,0.00,0.00,VWS V14.01,2012-11-17 01:44:00,
2012-11-16 20:45:00,60.9,57.0,30.14,NNW,327,0.0,2.0,87,0.00,,---,0.00,0.00,VWS V14.01,2012-11-17 01:45:00,
2012-11-16 20:46:00,60.8,56.9,30.14,NNW,327,0.0,2.0,87,0.00,,---,0.00,0.00,VWS V14.01,2012-11-17 01:46:00,
2012-11-16 20:47:00,60.8,57.2,30.14,NNW,327,0.0,2.0,88,0.00,,---,0.00,0.00,VWS V14.01,2012-11-17 01:47:00,
2012-11-16 20:48:00,60.8,57.2,30.14,NNW,327,0.0,2.0,88,0.00,,---,0.00,0.00,VWS V14.01,2012-11-17 01:48:00,
2012-11-16 20:49:00,60.9,56.7,30.14,NNW,327,0.0,2.0,86,0.00,,---,0.00,0.00,VWS V14.01,2012-11-17 01:49:00,
2012-11-16 20:50:00,60.8,57.2,30.14,NNW,327,0.0,2.0,88,0.00,,---,0.00,0.00,VWS V14.01,2012-11-17 01:50:00,
2012-11-16 20:51:00,60.7,57.1,30.14,NNW,327,0.0,2.0,88,0.00,,---,0.00,0.00,VWS V14.01,2012-11-17 01:51:00,
2012-11-16 20:52:00,60.7,56.8,30.14,NNW,327,0.0,2.0,87,0.00,,---,0.00,0.00,VWS V14.01,2012-11-17 01:52:00,
2012-11-16 20:53:00,60.6,57.0,30.14,NNW,327,0.0,2.0,88,0.00,,---,0.00,0.00,VWS V14.01,2012-11-17 01:53:00,
2012-11-16 20:54:00,60.9,57.0,30.14,NNW,327,0.0,2.0,87,0.00,,---,0.00,0.00,VWS V14.01,2012-11-17 01:54:00,
2012-11-16 20:55:00,60.6,57.0,30.14,NE,43,0.0,2.0,88,0.00,,---,0.00,0.00,VWS V14.01,2012-11-17 01:55:00,
2012-11-16 20:56:00,60.5,56.9,30.14,NE,43,0.0,2.0,88,0.00,,---,0.00,0.00,VWS V14.01,2012-11-17 01:56:00,
2012-11-16 20:57:00,60.5,56.9,30.14,NE,43,0.0,2.0,88,0.00,,---,0.00,0.00,VWS V14.01,2012-11-17 01:57:00,
2012-11-16 20:58:00,60.5,56.9,30.14,NE,43,0.0,2.0,88,0.00,,---,0.00,0.00,VWS V14.01,2012-11-17 01:58:00,
2012-11-16 20:59:00,60.8,57.2,30.14,NNW,327,0.0,2.0,88,0.00,,---,0.00,0.00,VWS V14.01,2012-11-17 01:59:00,
2012-11-16 21:00:00,60.3,56.7,30.14,NE,43,0.0,2.0,88,0.00,,---,0.00,0.00,VWS V14.01,2012-11-17 02:00:00,
2012-11-16 21:01:00,60.3,56.7,30.14,East,83,0.0,1.0,88,0.00,,---,0.00,0.00,VWS V14.01,2012-11-17 02:01:00,
2012-11-16 21:02:00,60.2,56.6,30.14,East,83,0.0,1.0,88,0.00,,---,0.00,0.00,VWS V14.01,2012-11-17 02:02:00,
2012-11-16 21:03:00,60.2,56.6,30.14,East,83,1.0,1.0,88,0.00,,---,0.00,0.00,VWS V14.01,2012-11-17 02:03:00,
2012-11-16 21:04:00,60.6,57.0,30.14,NE,43,0.0,2.0,88,0.00,,---,0.00,0.00,VWS V14.01,2012-11-17 02:04:00,
2012-11-16 21:05:00,60.0,56.4,30.14,East,80,0.0,1.0,88,0.00,,---,0.00,0.00,VWS V14.01,2012-11-17 02:05:00,
2012-11-16 21:06:00,60.0,56.4,30.14,East,80,0.0,1.0,88,0.00,,---,0.00,0.00,VWS V14.01,2012-11-17 02:06:00,
2012-11-16 21:07:00,60.0,56.4,30.14,East,80,0.0,1.0,88,0.00,,---,0.00,0.00,VWS V14.01,2012-11-17 02:07:00,
2012-11-16 21:08:00,59.9,56.3,30.14,East,80,0.0,1.0,88,0.00,,---,0.00,0.00,VWS V14.01,2012-11-17 02:08:00,
2012-11-16 21:09:00,60.3,56.7,30.14,NE,43,0.0,2.0,88,0.00,,---,0.00,0.00,VWS V14.01,2012-11-17 02:09:00,
2012-11-16 21:10:00,59.9,56.3,30.14,East,81,0.0,1.0,88,0.00,,---,0.00,0.00,VWS V14.01,2012-11-17 02:10:00,
2012-11-16 21:11:00,59.9,56.7,30.14,East,81,0.0,1.0,89,0.00,,---,0.00,0.00,VWS V14.01,2012-11-17 02:11:00,
2012-11-16 21:12:00,59.8,56.2,30.14,North,350,1.0,1.0,88,0.00,,---,0.00,0.00,VWS V14.01,2012-11-17 02:12:00,
2012-11-16 21:13:00,59.8,56.2,30.14,NNW,343,0.0,1.0,88,0.00,,---,0.00,0.00,VWS V14.01,2012-11-17 02:13:00,
2012-11-16 21:14:00,60.0,56.4,30.14,East,80,0.0,1.0,88,0.00,,---,0.00,0.00,VWS V14.01,2012-11-17 02:14:00,
2012-11-16 21:15:00,59.8,56.2,30.14,NNW,347,0.0,1.0,88,0.00,,---,0.00,0.00,VWS V14.01,2012-11-17 02:15:00,
2012-11-16 21:16:00,59.7,56.2,30.14,NNW,347,0.0,1.0,88,0.00,,---,0.00,0.00,VWS V14.01,2012-11-17 02:16:00,
2012-11-16 21:17:00,59.7,56.2,30.14,NNW,347,0.0,1.0,88,0.00,,---,0.00,0.00,VWS V14.01,2012-11-17 02:17:00,
2012-11-16 21:18:00,59.7,56.5,30.14,NNW,347,0.0,1.0,89,0.00,,---,0.00,0.00,VWS V14.01,2012-11-17 02:18:00,
2012-11-16 21:19:00,59.9,56.3,30.14,East,82,0.0,1.0,88,0.00,,---,0.00,0.00,VWS V14.01,2012-11-17 02:19:00,
2012-11-16 21:20:00,59.6,56.4,30.14,North,8,0.0,2.0,89,0.00,,---,0.00,0.00,VWS V14.01,2012-11-17 02:20:00,
2012-11-16 21:21:00,59.6,56.4,30.14,NNE,26,0.0,2.0,89,0.00,,---,0.00,0.00,VWS V14.01,2012-11-17 02:21:00,
2012-11-16 21:22:00,59.6,56.4,30.14,NNE,26,0.0,2.0,89,0.00,,---,0.00,0.00,VWS V14.01,2012-11-17 02:22:00,
2012-11-16 21:23:00,59.5,56.3,30.14,NNE,26,0.0,2.0,89,0.00,,---,0.00,0.00,VWS V14.01,2012-11-17 02:23:00,
2012-11-16 21:24:00,59.8,56.2,30.14,NNW,347,0.0,1.0,88,0.00,,---,0.00,0.00,VWS V14.01,2012-11-17 02:24:00,
2012-11-16 21:25:00,59.5,56.3,30.14,NNE,26,0.0,2.0,89,0.00,,---,0.00,0.00,VWS V14.01,2012-11-17 02:25:00,
2012-11-16 21:26:00,59.5,56.3,30.14,NNE,26,0.0,2.0,89,0.00,,---,0.00,0.00,VWS V14.01,2012-11-17 02:26:00,
2012-11-16 21:27:00,59.6,56.4,30.14,NNE,26,0.0,2.0,89,0.00,,---,0.00,0.00,VWS V14.01,2012-11-17 02:27:00,
2012-11-16 21:28:00,59.6,56.4,30.14,NNE,27,0.0,2.0,89,0.00,,---,0.00,0.00,VWS V14.01,2012-11-17 02:28:00,
2012-11-16 21:29:00,59.6,56.4,30.14,North,8,0.0,2.0,89,0.00,,---,0.00,0.00,VWS V14.01,2012-11-17 02:29:00,
2012-11-16 21:30:00,59.6,56.4,30.14,NNE,27,0.0,2.0,89,0.00,,---,0.00,0.00,VWS V14.01,2012-11-17 02:30:00,
2012-11-16 21:31:00,59.7,56.5,30.14,NNE,27,0.0,2.0,89,0.00,,---,0.00,0.00,VWS V14.01,2012-11-17 02:31:00,
2012-11-16 21:32:00,59.7,56.8,30.14,NNE,20,0.0,2.0,90,0.00,,---,0.00,0.00,VWS V14.01,2012-11-17 02:32:00,
2012-11-16 21:33:00,59.7,56.5,30.14,NNE,20,0.0,2.0,89,0.00,,---,0.00,0.00,VWS V14.01,2012-11-17 02:33:00,
2012-11-16 21:34:00,59.5,56.3,30.14,NNE,26,0.0,2.0,89,0.00,,---,0.00,0.00,VWS V14.01,2012-11-17 02:34:00,
2012-11-16 21:35:00,59.6,56.4,30.14,NNE,20,0.0,2.0,89,0.00,,---,0.00,0.00,VWS V14.01,2012-11-17 02:35:00,
2012-11-16 21:36:00,59.6,56.4,30.14,NNE,20,0.0,2.0,89,0.00,,---,0.00,0.00,VWS V14.01,2012-11-17 02:36:00,
2012-11-16 21:37:00,59.5,56.3,30.15,NNE,20,0.0,2.0,89,0.00,,---,0.00,0.00,VWS V14.01,2012-11-17 02:37:00,
2012-11-16 21:38:00,59.4,56.2,30.14,NNE,20,0.0,2.0,89,0.00,,---,0.00,0.00,VWS V14.01,2012-11-17 02:38:00,
2012-11-16 21:39:00,59.4,56.2,30.14,NNE,20,0.0,2.0,89,0.00,,---,0.00,0.00,VWS V14.01,2012-11-17 02:39:00,
2012-11-16 21:40:00,59.7,56.5,30.14,NNE,27,0.0,2.0,89,0.00,,---,0.00,0.00,VWS V14.01,2012-11-17 02:40:00,
2012-11-16 21:41:00,59.3,56.1,30.14,NNE,20,0.0,2.0,89,0.00,,---,0.00,0.00,VWS V14.01,2012-11-17 02:41:00,
2012-11-16 21:42:00,59.3,56.4,30.14,NNE,20,0.0,2.0,90,0.00,,---,0.00,0.00,VWS V14.01,2012-11-17 02:42:00,
2012-11-16 21:43:00,59.3,56.4,30.14,NNE,20,0.0,2.0,90,0.00,,---,0.00,0.00,VWS V14.01,2012-11-17 02:43:00,
2012-11-16 21:44:00,59.2,56.3,30.14,NNE,20,0.0,2.0,90,0.00,,---,0.00,0.00,VWS V14.01,2012-11-17 02:44:00,
2012-11-16 21:45:00,59.6,56.4,30.14,NNE,20,0.0,2.0,89,0.00,,---,0.00,0.00,VWS V14.01,2012-11-17 02:45:00,
2012-11-16 21:46:00,59.1,56.2,30.14,NNE,20,0.0,2.0,90,0.00,,---,0.00,0.00,VWS V14.01,2012-11-17 02:46:00,
2012-11-16 21:47:00,59.1,56.2,30.14,NNE,20,0.0,2.0,90,0.00,,---,0.00,0.00,VWS V14.01,2012-11-17 02:47:00,
2012-11-16 21:48:00,59.1,56.2,30.14,NNE,20,0.0,2.0,90,0.00,,---,0.00,0.00,VWS V14.01,2012-11-17 02:48:00,
2012-11-16 21:49:00,59.1,56.2,30.14,NNE,20,0.0,2.0,90,0.00,,---,0.00,0.00,VWS V14.01,2012-11-17 02:49:00,
2012-11-16 21:50:00,59.3,56.1,30.14,NNE,20,0.0,2.0,89,0.00,,---,0.00,0.00,VWS V14.01,2012-11-17 02:50:00,
2012-11-16 21:51:00,59.0,56.1,30.14,NNE,20,0.0,2.0,90,0.00,,---,0.00,0.00,VWS V14.01,2012-11-17 02:51:00,
2012-11-16 21:52:00,58.9,56.0,30.14,NNE,20,0.0,2.0,90,0.00,,---,0.00,0.00,VWS V14.01,2012-11-17 02:52:00,
2012-11-16 21:53:00,58.9,56.0,30.14,NNE,20,0.0,2.0,90,0.00,,---,0.00,0.00,VWS V14.01,2012-11-17 02:53:00,
2012-11-16 21:54:00,58.9,56.0,30.14,NNE,20,0.0,2.0,90,0.00,,---,0.00,0.00,VWS V14.01,2012-11-17 02:54:00,
2012-11-16 21:55:00,59.1,56.2,30.14,NNE,20,0.0,2.0,90,0.00,,---,0.00,0.00,VWS V14.01,2012-11-17 02:55:00,
2012-11-16 21:56:00,58.9,56.0,30.14,NNE,15,0.0,2.0,90,0.00,,---,0.00,0.00,VWS V14.01,2012-11-17 02:56:00,
2012-11-16 21:57:00,58.9,56.0,30.14,NNE,15,0.0,2.0,90,0.00,,---,0.00,0.00,VWS V14.01,2012-11-17 02:57:00,
2012-11-16 21:58:00,59.0,56.1,30.14,NNE,15,0.0,2.0,90,0.00,,---,0.00,0.00,VWS V14.01,2012-11-17 02:58:00,
2012-11-16 21:59:00,59.0,56.1,30.14,NNE,15,0.0,2.0,90,0.00,,---,0.00,0.00,VWS V14.01,2012-11-17 02:59:00,
2012-11-16 22:00:00,59.0,56.1,30.14,NNE,20,0.0,2.0,90,0.00,,---,0.00,0.00,VWS V14.01,2012-11-17 03:00:00,
2012-11-16 22:01:00,59.1,56.2,30.14,NNE,15,0.0,0.0,90,0.00,,---,0.00,0.00,VWS V14.01,2012-11-17 03:01:00,
2012-11-16 22:02:00,59.1,56.2,30.14,NE,50,0.0,2.0,90,0.00,,---,0.00,0.00,VWS V14.01,2012-11-17 03:02:00,
2012-11-16 22:03:00,59.1,56.2,30.14,NE,50,0.0,2.0,90,0.00,,---,0.00,0.00,VWS V14.01,2012-11-17 03:03:00,
2012-11-16 22:04:00,59.2,56.3,30.14,NNW,333,3.0,3.0,90,0.00,,---,0.00,0.00,VWS V14.01,2012-11-17 03:04:00,
2012-11-16 22:05:00,58.9,56.0,30.14,NNE,15,0.0,2.0,90,0.00,,---,0.00,0.00,VWS V14.01,2012-11-17 03:05:00,
2012-11-16 22:06:00,59.2,56.3,30.14,East,85,0.0,3.0,90,0.00,,---,0.00,0.00,VWS V14.01,2012-11-17 03:06:00,
2012-11-16 22:07:00,59.2,56.3,30.14,East,85,0.0,3.0,90,0.00,,---,0.00,0.00,VWS V14.01,2012-11-17 03:07:00,
2012-11-16 22:08:00,59.3,56.4,30.14,East,85,0.0,3.0,90,0.00,,---,0.00,0.00,VWS V14.01,2012-11-17 03:08:00,
2012-11-16 22:09:00,59.3,56.4,30.14,North,356,0.0,3.0,90,0.00,,---,0.00,0.00,VWS V14.01,2012-11-17 03:09:00,
2012-11-16 22:10:00,59.1,56.2,30.14,NNE,15,0.0,0.0,90,0.00,,---,0.00,0.00,VWS V14.01,2012-11-17 03:10:00,
2012-11-16 22:11:00,59.4,56.5,30.14,North,356,0.0,3.0,90,0.00,,---,0.00,0.00,VWS V14.01,2012-11-17 03:11:00,
2012-11-16 22:12:00,59.4,56.2,30.14,NE,36,1.0,3.0,89,0.00,,---,0.00,0.00,VWS V14.01,2012-11-17 03:12:00,
2012-11-16 22:13:00,59.4,56.2,30.14,ENE,66,1.0,6.0,89,0.00,,---,0.00,0.00,VWS V14.01,2012-11-17 03:13:00,
2012-11-16 22:14:00,59.5,56.3,30.14,NNE,31,1.0,6.0,89,0.00,,---,0.00,0.00,VWS V14.01,2012-11-17 03:14:00,
2012-11-16 22:15:00,59.2,56.3,30.14,East,85,0.0,3.0,90,0.00,,---,0.00,0.00,VWS V14.01,2012-11-17 03:15:00,
2012-11-16 22:16:00,59.5,56.3,30.14,NNW,348,0.0,6.0,89,0.00,,---,0.00,0.00,VWS V14.01,2012-11-17 03:16:00,
2012-11-16 22:17:00,59.5,56.3,30.14,NNW,348,0.0,6.0,89,0.00,,---,0.00,0.00,VWS V14.01,2012-11-17 03:17:00,
2012-11-16 22:18:00,59.5,56.3,30.14,ENE,60,0.0,6.0,89,0.00,,---,0.00,0.00,VWS V14.01,2012-11-17 03:18:00,
2012-11-16 22:19:00,59.5,56.3,30.14,ENE,60,0.0,6.0,89,0.00,,---,0.00,0.00,VWS V14.01,2012-11-17 03:19:00,
2012-11-16 22:20:00,59.4,56.5,30.15,North,356,0.0,3.0,90,0.00,,---,0.00,0.00,VWS V14.01,2012-11-17 03:20:00,
2012-11-16 22:21:00,59.6,56.4,30.15,NE,48,0.0,6.0,89,0.00,,---,0.00,0.00,VWS V14.01,2012-11-17 03:21:00,
2012-11-16 22:22:00,59.8,56.9,30.15,NE,48,0.0,6.0,90,0.00,,---,0.00,0.00,VWS V14.01,2012-11-17 03:22:00,
2012-11-16 22:23:00,59.8,56.9,30.15,North,355,1.0,6.0,90,0.00,,---,0.00,0.00,VWS V14.01,2012-11-17 03:23:00,
2012-11-16 22:24:00,59.9,56.7,30.15,North,355,0.0,6.0,89,0.00,,---,0.00,0.00,VWS V14.01,2012-11-17 03:24:00,
2012-11-16 22:25:00,59.5,56.3,30.14,NNW,348,0.0,6.0,89,0.00,,---,0.00,0.00,VWS V14.01,2012-11-17 03:25:00,
2012-11-16 22:26:00,59.9,57.0,30.15,North,9,0.0,6.0,90,0.00,,---,0.00,0.00,VWS V14.01,2012-11-17 03:26:00,
2012-11-16 22:27:00,60.0,57.1,30.15,North,9,0.0,6.0,90,0.00,,---,0.00,0.00,VWS V14.01,2012-11-17 03:27:00,
2012-11-16 22:28:00,60.0,56.8,30.15,North,9,0.0,6.0,89,0.00,,---,0.00,0.00,VWS V14.01,2012-11-17 03:28:00,
2012-11-16 22:29:00,60.0,56.8,30.15,North,9,0.0,6.0,89,0.00,,---,0.00,0.00,VWS V14.01,2012-11-17 03:29:00,
2012-11-16 22:30:00,60.0,56.8,30.15,North,9,0.0,6.0,89,0.00,,---,0.00,0.00,VWS V14.01,2012-11-17 03:30:00,
2012-11-16 22:31:00,59.6,56.4,30.15,NE,48,0.0,6.0,89,0.00,,---,0.00,0.00,VWS V14.01,2012-11-17 03:31:00,
2012-11-16 22:32:00,60.1,56.8,30.15,North,9,0.0,6.0,89,0.00,,---,0.00,0.00,VWS V14.01,2012-11-17 03:32:00,
2012-11-16 22:33:00,60.2,57.0,30.15,ENE,71,0.0,6.0,89,0.00,,---,0.00,0.00,VWS V14.01,2012-11-17 03:33:00,
2012-11-16 22:34:00,60.1,56.8,30.15,SSE,160,0.0,6.0,89,0.00,,---,0.00,0.00,VWS V14.01,2012-11-17 03:34:00,
2012-11-16 22:35:00,60.1,56.8,30.15,NE,35,0.0,6.0,89,0.00,,---,0.00,0.00,VWS V14.01,2012-11-17 03:35:00,
2012-11-16 22:36:00,59.9,57.0,30.15,North,9,0.0,6.0,90,0.00,,---,0.00,0.00,VWS V14.01,2012-11-17 03:36:00,
2012-11-16 22:37:00,60.1,56.8,30.15,NNW,337,0.0,6.0,89,0.00,,---,0.00,0.00,VWS V14.01,2012-11-17 03:37:00,
2012-11-16 22:38:00,60.1,56.8,30.15,NNW,337,0.0,6.0,89,0.00,,---,0.00,0.00,VWS V14.01,2012-11-17 03:38:00,
2012-11-16 22:39:00,60.1,56.8,30.15,ENE,60,0.0,6.0,89,0.00,,---,0.00,0.00,VWS V14.01,2012-11-17 03:39:00,
2012-11-16 22:40:00,60.2,57.0,30.15,ENE,60,0.0,6.0,89,0.00,,---,0.00,0.00,VWS V14.01,2012-11-17 03:40:00,
2012-11-16 22:41:00,60.1,56.8,30.15,North,9,1.0,6.0,89,0.00,,---,0.00,0.00,VWS V14.01,2012-11-17 03:41:00,
2012-11-16 22:42:00,60.2,57.0,30.15,North,4,0.0,6.0,89,0.00,,---,0.00,0.00,VWS V14.01,2012-11-17 03:42:00,
2012-11-16 22:43:00,60.3,57.0,30.15,North,4,0.0,6.0,89,0.00,,---,0.00,0.00,VWS V14.01,2012-11-17 03:43:00,
2012-11-16 22:44:00,60.3,57.0,30.15,NNW,327,1.0,6.0,89,0.00,,---,0.00,0.00,VWS V14.01,2012-11-17 03:44:00,
2012-11-16 22:45:00,60.3,57.0,30.15,North,1,0.0,6.0,89,0.00,,---,0.00,0.00,VWS V14.01,2012-11-17 03:45:00,
2012-11-16 22:46:00,60.1,56.8,30.15,NNW,337,0.0,6.0,89,0.00,,---,0.00,0.00,VWS V14.01,2012-11-17 03:46:00,
2012-11-16 22:47:00,60.4,57.2,30.15,North,353,0.0,6.0,89,0.00,,---,0.00,0.00,VWS V14.01,2012-11-17 03:47:00,
2012-11-16 22:48:00,60.4,57.2,30.15,North,353,0.0,6.0,89,0.00,,---,0.00,0.00,VWS V14.01,2012-11-17 03:48:00,
2012-11-16 22:49:00,60.4,57.2,30.15,North,353,0.0,6.0,89,0.00,,---,0.00,0.00,VWS V14.01,2012-11-17 03:49:00,
2012-11-16 22:50:00,60.5,57.2,30.15,North,353,0.0,6.0,89,0.00,,---,0.00,0.00,VWS V14.01,2012-11-17 03:50:00,
2012-11-16 22:51:00,60.2,57.0,30.15,North,4,0.0,6.0,89,0.00,,---,0.00,0.00,VWS V14.01,2012-11-17 03:51:00,
2012-11-16 22:52:00,60.5,57.2,30.15,North,353,0.0,6.0,89,0.00,,---,0.00,0.00,VWS V14.01,2012-11-17 03:52:00,
2012-11-16 22:53:00,60.5,57.2,30.15,North,353,0.0,6.0,89,0.00,,---,0.00,0.00,VWS V14.01,2012-11-17 03:53:00,
2012-11-16 22:54:00,60.5,57.2,30.15,North,353,0.0,6.0,89,0.00,,---,0.00,0.00,VWS V14.01,2012-11-17 03:54:00,
2012-11-16 22:55:00,60.6,57.3,30.15,North,353,0.0,6.0,89,0.00,,---,0.00,0.00,VWS V14.01,2012-11-17 03:55:00,
2012-11-16 22:56:00,60.4,57.2,30.15,North,353,0.0,6.0,89,0.00,,---,0.00,0.00,VWS V14.01,2012-11-17 03:56:00,
2012-11-16 22:57:00,60.6,57.3,30.15,NNE,19,0.0,6.0,89,0.00,,---,0.00,0.00,VWS V14.01,2012-11-17 03:57:00,
2012-11-16 22:58:00,60.6,57.3,30.15,NNE,20,0.0,6.0,89,0.00,,---,0.00,0.00,VWS V14.01,2012-11-17 03:58:00,
2012-11-16 22:59:00,60.6,57.3,30.15,NNE,16,1.0,6.0,89,0.00,,---,0.00,0.00,VWS V14.01,2012-11-17 03:59:00,
2012-11-16 23:00:00,60.7,57.4,30.15,NNE,16,0.0,0.0,89,0.00,,---,0.00,0.00,VWS V14.01,2012-11-17 04:00:00,
2012-11-16 23:01:00,60.5,57.2,30.15,North,353,0.0,6.0,89,0.00,,---,0.00,0.00,VWS V14.01,2012-11-17 04:01:00,
2012-11-16 23:02:00,60.7,57.4,30.15,NNW,339,0.0,2.0,89,0.00,,---,0.00,0.00,VWS V14.01,2012-11-17 04:02:00,
2012-11-16 23:03:00,60.8,57.5,30.15,ESE,117,1.0,2.0,89,0.00,,---,0.00,0.00,VWS V14.01,2012-11-17 04:03:00,
2012-11-16 23:04:00,60.8,57.5,30.15,ENE,71,1.0,2.0,89,0.00,,---,0.00,0.00,VWS V14.01,2012-11-17 04:04:00,
2012-11-16 23:05:00,60.8,57.5,30.15,ENE,71,0.0,2.0,89,0.00,,---,0.00,0.00,VWS V14.01,2012-11-17 04:05:00,
2012-11-16 23:06:00,60.6,57.3,30.15,NNE,19,0.0,6.0,89,0.00,,---,0.00,0.00,VWS V14.01,2012-11-17 04:06:00,
2012-11-16 23:07:00,60.8,57.5,30.15,East,92,0.0,2.0,89,0.00,,---,0.00,0.00,VWS V14.01,2012-11-17 04:07:00,
2012-11-16 23:08:00,60.8,57.5,30.15,East,92,0.0,2.0,89,0.00,,---,0.00,0.00,VWS V14.01,2012-11-17 04:08:00,
2012-11-16 23:09:00,60.9,57.6,30.15,NE,56,2.0,2.0,89,0.00,,---,0.00,0.00,VWS V14.01,2012-11-17 04:09:00,
2012-11-16 23:10:00,60.8,57.5,30.15,NE,37,4.0,5.0,89,0.00,,---,0.00,0.00,VWS V14.01,2012-11-17 04:10:00,
2012-11-16 23:11:00,60.7,57.4,30.15,NNW,339,0.0,2.0,89,0.00,,---,0.00,0.00,VWS V14.01,2012-11-17 04:11:00,
2012-11-16 23:12:00,60.7,57.1,30.15,WNW,286,0.0,5.0,88,0.00,,---,0.00,0.00,VWS V14.01,2012-11-17 04:12:00,
2012-11-16 23:13:00,60.7,57.1,30.15,NNE,16,1.0,5.0,88,0.00,,---,0.00,0.00,VWS V14.01,2012-11-17 04:13:00,
2012-11-16 23:14:00,60.8,57.2,30.15,NNE,27,1.0,5.0,88,0.00,,---,0.00,0.00,VWS V14.01,2012-11-17 04:14:00,
2012-11-16 23:15:00,60.8,57.5,30.15,NNE,25,1.0,5.0,89,0.00,,---,0.00,0.00,VWS V14.01,2012-11-17 04:15:00,
2012-11-16 23:16:00,60.8,57.5,30.15,East,92,0.0,2.0,89,0.00,,---,0.00,0.00,VWS V14.01,2012-11-17 04:16:00,
2012-11-16 23:17:00,60.9,57.6,30.15,NE,42,3.0,7.0,89,0.00,,---,0.00,0.00,VWS V14.01,2012-11-17 04:17:00,
2012-11-16 23:18:00,60.8,57.2,30.15,ENE,69,1.0,7.0,88,0.00,,---,0.00,0.00,VWS V14.01,2012-11-17 04:18:00,
2012-11-16 23:19:00,60.8,57.2,30.14,East,96,0.0,7.0,88,0.00,,---,0.00,0.00,VWS V14.01,2012-11-17 04:19:00,
2012-11-16 23:20:00,60.7,57.1,30.14,East,96,0.0,7.0,88,0.00,,---,0.00,0.00,VWS V14.01,2012-11-17 04:20:00,
2012-11-16 23:21:00,60.7,57.1,30.15,East,87,2.0,7.0,88,0.00,,---,0.00,0.00,VWS V14.01,2012-11-17 04:21:00,
2012-11-16 23:22:00,60.7,57.1,30.15,WNW,286,1.0,5.0,88,0.00,,---,0.00,0.00,VWS V14.01,2012-11-17 04:22:00,
2012-11-16 23:23:00,60.7,57.1,30.14,North,8,1.0,7.0,88,0.00,,---,0.00,0.00,VWS V14.01,2012-11-17 04:23:00,
2012-11-16 23:24:00,60.7,57.1,30.14,NNW,340,0.0,7.0,88,0.00,,---,0.00,0.00,VWS V14.01,2012-11-17 04:24:00,
2012-11-16 23:25:00,60.7,57.4,30.15,NNW,340,0.0,7.0,89,0.00,,---,0.00,0.00,VWS V14.01,2012-11-17 04:25:00,
2012-11-16 23:26:00,60.8,57.5,30.15,NNW,340,0.0,7.0,89,0.00,,---,0.00,0.00,VWS V14.01,2012-11-17 04:26:00,
2012-11-16 23:27:00,60.8,57.2,30.15,ENE,72,3.0,7.0,88,0.00,,---,0.00,0.00,VWS V14.01,2012-11-17 04:27:00,
2012-11-16 23:28:00,60.8,57.5,30.14,North,357,0.0,7.0,89,0.00,,---,0.00,0.00,VWS V14.01,2012-11-17 04:28:00,
2012-11-16 23:29:00,60.8,57.5,30.14,North,349,2.0,7.0,89,0.00,,---,0.00,0.00,VWS V14.01,2012-11-17 04:29:00,
2012-11-16 23:30:00,60.8,57.5,30.14,NE,54,1.0,7.0,89,0.00,,---,0.00,0.00,VWS V14.01,2012-11-17 04:30:00,
2012-11-16 23:31:00,60.7,57.1,30.14,NE,54,0.0,7.0,88,0.00,,---,0.00,0.00,VWS V14.01,2012-11-17 04:31:00,
2012-11-16 23:32:00,60.7,57.1,30.14,North,8,1.0,7.0,88,0.00,,---,0.00,0.00,VWS V14.01,2012-11-17 04:32:00,
2012-11-16 23:33:00,60.7,57.4,30.14,NE,35,1.0,7.0,89,0.00,,---,0.00,0.00,VWS V14.01,2012-11-17 04:33:00,
2012-11-16 23:34:00,60.7,57.4,30.14,ENE,72,2.0,7.0,89,0.00,,---,0.00,0.00,VWS V14.01,2012-11-17 04:34:00,
2012-11-16 23:35:00,60.7,57.4,30.14,ENE,72,0.0,7.0,89,0.00,,---,0.00,0.00,VWS V14.01,2012-11-17 04:35:00,
2012-11-16 23:36:00,60.7,57.4,30.14,ENE,77,0.0,7.0,89,0.00,,---,0.00,0.00,VWS V14.01,2012-11-17 04:36:00,
2012-11-16 23:37:00,60.8,57.5,30.14,North,357,0.0,7.0,89,0.00,,---,0.00,0.00,VWS V14.01,2012-11-17 04:37:00,
2012-11-16 23:38:00,60.7,57.4,30.14,NNE,29,0.0,7.0,89,0.00,,---,0.00,0.00,VWS V14.01,2012-11-17 04:38:00,
2012-11-16 23:39:00,60.7,57.4,30.14,NNE,29,1.0,7.0,89,0.00,,---,0.00,0.00,VWS V14.01,2012-11-17 04:39:00,
2012-11-16 23:40:00,60.6,57.3,30.14,NE,44,4.0,7.0,89,0.00,,---,0.00,0.00,VWS V14.01,2012-11-17 04:40:00,
2012-11-16 23:41:00,60.6,57.3,30.14,ENE,57,1.0,7.0,89,0.00,,---,0.00,0.00,VWS V14.01,2012-11-17 04:41:00,
2012-11-16 23:42:00,60.7,57.1,30.14,ENE,68,0.0,7.0,88,0.00,,---,0.00,0.00,VWS V14.01,2012-11-17 04:42:00,
2012-11-16 23:43:00,60.6,57.3,30.14,ENE,72,2.0,7.0,89,0.00,,---,0.00,0.00,VWS V14.01,2012-11-17 04:43:00,
2012-11-16 23:44:00,60.5,57.2,30.14,East,90,2.0,7.0,89,0.00,,---,0.00,0.00,VWS V14.01,2012-11-17 04:44:00,
2012-11-16 23:45:00,60.5,57.2,30.14,ENE,67,4.0,7.0,89,0.00,,---,0.00,0.00,VWS V14.01,2012-11-17 04:45:00,
2012-11-16 23:46:00,60.5,57.2,30.14,North,360,0.0,7.0,89,0.00,,---,0.00,0.00,VWS V14.01,2012-11-17 04:46:00,
2012-11-16 23:47:00,60.7,57.4,30.14,NNE,29,0.0,7.0,89,0.00,,---,0.00,0.00,VWS V14.01,2012-11-17 04:47:00,
2012-11-16 23:48:00,60.4,57.2,30.14,NE,43,1.0,7.0,89,0.00,,---,0.00,0.00,VWS V14.01,2012-11-17 04:48:00,
2012-11-16 23:49:00,60.4,57.2,30.14,NE,43,1.0,7.0,89,0.00,,---,0.00,0.00,VWS V14.01,2012-11-17 04:49:00,
2012-11-16 23:50:00,60.3,57.0,30.14,NE,55,2.0,7.0,89,0.00,,---,0.00,0.00,VWS V14.01,2012-11-17 04:50:00,
2012-11-16 23:51:00,60.3,57.0,30.14,East,88,3.0,7.0,89,0.00,,---,0.00,0.00,VWS V14.01,2012-11-17 04:51:00,
2012-11-16 23:52:00,60.3,57.0,30.14,NE,54,0.0,7.0,89,0.00,,---,0.00,0.00,VWS V14.01,2012-11-17 04:52:00,
2012-11-16 23:53:00,60.6,57.3,30.14,ENE,60,0.0,7.0,89,0.00,,---,0.00,0.00,VWS V14.01,2012-11-17 04:53:00,
2012-11-16 23:54:00,60.3,57.0,30.14,ENE,63,4.0,8.0,89,0.00,,---,0.00,0.00,VWS V14.01,2012-11-17 04:54:00,
2012-11-16 23:55:00,60.2,57.0,30.14,NW,308,0.0,8.0,89,0.00,,---,0.00,0.00,VWS V14.01,2012-11-17 04:55:00,
2012-11-16 23:56:00,60.2,57.0,30.14,NE,51,2.0,8.0,89,0.00,,---,0.00,0.00,VWS V14.01,2012-11-17 04:56:00,
2012-11-16 23:57:00,60.2,57.0,30.14,East,79,1.0,8.0,89,0.00,,---,0.00,0.00,VWS V14.01,2012-11-17 04:57:00,
2012-11-16 23:58:00,60.4,57.2,30.14,ENE,64,5.0,7.0,89,0.00,,---,0.00,0.00,VWS V14.01,2012-11-17 04:58:00,
2012-11-16 23:59:00,60.2,57.0,30.14,ENE,73,1.0,8.0,89,0.00,,---,0.00,0.00,VWS V14.01,2012-11-17 04:59:00,